<?xml version="1.0" encoding="UTF-8" standalone="no" ?>
<gpx xmlns="http://www.topografix.com/GPX/1/1" xmlns:xsi="http://www.w3.org/2001/XMLSchema-instance" xsi:schemaLocation="http://www.topografix.com/GPX/1/1 http://www.topografix.com/GPX/1/1/gpx.xsd" version="1.1" creator="VisuGPX - https://www.visugpx.com">
  <metadata>
    <name>Trestel - St Guénolé - bois Riou (22660)</name>
    <desc><![CDATA[Départ, plage de Trestel, passage par le marais sur des passerelles, montée ver St Guénolé et sa chapelle, étang de bois riou, sentier pittoresque pour atteindre l'étang du Moulin d'en Bas, retour par le bord de mer.
A marée basse, au km 8,87 on peut passer par le plage, plus agréable que la route.]]></desc>
  </metadata>
  <trk>
    <name><![CDATA[Trestel - St Guénolé - bois Riou (22660)_1]]></name>
    <trkseg>
      <trkpt lat="48.82082" lon="-3.35125">
        <ele>4</ele>
        <time>2018-04-23T14:20:51+02:00</time>
      </trkpt>
      <trkpt lat="48.82087" lon="-3.3511">
        <ele>4</ele>
        <time>2018-04-23T14:21:01+02:00</time>
      </trkpt>
      <trkpt lat="48.82091" lon="-3.35095">
        <ele>5</ele>
        <time>2018-04-23T14:21:11+02:00</time>
      </trkpt>
      <trkpt lat="48.82096" lon="-3.3508">
        <ele>6</ele>
        <time>2018-04-23T14:21:21+02:00</time>
      </trkpt>
      <trkpt lat="48.82095" lon="-3.35077">
        <ele>6</ele>
        <time>2018-04-23T14:21:31+02:00</time>
      </trkpt>
      <trkpt lat="48.82087" lon="-3.35061">
        <ele>7</ele>
        <time>2018-04-23T14:21:41+02:00</time>
      </trkpt>
      <trkpt lat="48.82078" lon="-3.35053">
        <ele>7</ele>
        <time>2018-04-23T14:21:51+02:00</time>
      </trkpt>
      <trkpt lat="48.82067" lon="-3.35041">
        <ele>7</ele>
        <time>2018-04-23T14:22:01+02:00</time>
      </trkpt>
      <trkpt lat="48.82058" lon="-3.35027">
        <ele>8</ele>
        <time>2018-04-23T14:22:11+02:00</time>
      </trkpt>
      <trkpt lat="48.82053" lon="-3.35011">
        <ele>8</ele>
        <time>2018-04-23T14:22:21+02:00</time>
      </trkpt>
      <trkpt lat="48.82043" lon="-3.35007">
        <ele>8</ele>
        <time>2018-04-23T14:22:31+02:00</time>
      </trkpt>
      <trkpt lat="48.82035" lon="-3.34991">
        <ele>8</ele>
        <time>2018-04-23T14:22:41+02:00</time>
      </trkpt>
      <trkpt lat="48.82029" lon="-3.34982">
        <ele>8</ele>
        <time>2018-04-23T14:22:51+02:00</time>
      </trkpt>
      <trkpt lat="48.82027" lon="-3.34976">
        <ele>8</ele>
        <time>2018-04-23T14:23:01+02:00</time>
      </trkpt>
      <trkpt lat="48.82027" lon="-3.34978">
        <ele>8</ele>
        <time>2018-04-23T14:23:11+02:00</time>
      </trkpt>
      <trkpt lat="48.82024" lon="-3.34963">
        <ele>9</ele>
        <time>2018-04-23T14:23:21+02:00</time>
      </trkpt>
      <trkpt lat="48.82022" lon="-3.34968">
        <ele>9</ele>
        <time>2018-04-23T14:23:31+02:00</time>
      </trkpt>
      <trkpt lat="48.82024" lon="-3.34973">
        <ele>8</ele>
        <time>2018-04-23T14:23:41+02:00</time>
      </trkpt>
      <trkpt lat="48.82022" lon="-3.34972">
        <ele>8</ele>
        <time>2018-04-23T14:23:51+02:00</time>
      </trkpt>
      <trkpt lat="48.82027" lon="-3.34974">
        <ele>9</ele>
        <time>2018-04-23T14:24:01+02:00</time>
      </trkpt>
      <trkpt lat="48.82024" lon="-3.34968">
        <ele>9</ele>
        <time>2018-04-23T14:24:11+02:00</time>
      </trkpt>
      <trkpt lat="48.82025" lon="-3.34973">
        <ele>8</ele>
        <time>2018-04-23T14:24:21+02:00</time>
      </trkpt>
      <trkpt lat="48.82016" lon="-3.34962">
        <ele>8</ele>
        <time>2018-04-23T14:24:31+02:00</time>
      </trkpt>
      <trkpt lat="48.82017" lon="-3.34957">
        <ele>9</ele>
        <time>2018-04-23T14:24:41+02:00</time>
      </trkpt>
      <trkpt lat="48.8201" lon="-3.34945">
        <ele>9</ele>
        <time>2018-04-23T14:24:51+02:00</time>
      </trkpt>
      <trkpt lat="48.82001" lon="-3.34934">
        <ele>8</ele>
        <time>2018-04-23T14:25:01+02:00</time>
      </trkpt>
      <trkpt lat="48.81993" lon="-3.3492">
        <ele>9</ele>
        <time>2018-04-23T14:25:11+02:00</time>
      </trkpt>
      <trkpt lat="48.81986" lon="-3.34907">
        <ele>9</ele>
        <time>2018-04-23T14:25:21+02:00</time>
      </trkpt>
      <trkpt lat="48.81976" lon="-3.34892">
        <ele>9</ele>
        <time>2018-04-23T14:25:31+02:00</time>
      </trkpt>
      <trkpt lat="48.81963" lon="-3.34872">
        <ele>10</ele>
        <time>2018-04-23T14:25:44+02:00</time>
      </trkpt>
      <trkpt lat="48.81957" lon="-3.34864">
        <ele>10</ele>
        <time>2018-04-23T14:25:54+02:00</time>
      </trkpt>
      <trkpt lat="48.81951" lon="-3.34858">
        <ele>10</ele>
        <time>2018-04-23T14:26:04+02:00</time>
      </trkpt>
      <trkpt lat="48.81941" lon="-3.34861">
        <ele>9</ele>
        <time>2018-04-23T14:26:14+02:00</time>
      </trkpt>
      <trkpt lat="48.81929" lon="-3.34858">
        <ele>8</ele>
        <time>2018-04-23T14:26:24+02:00</time>
      </trkpt>
      <trkpt lat="48.81918" lon="-3.34858">
        <ele>7</ele>
        <time>2018-04-23T14:26:34+02:00</time>
      </trkpt>
      <trkpt lat="48.8192" lon="-3.34851">
        <ele>8</ele>
        <time>2018-04-23T14:26:44+02:00</time>
      </trkpt>
      <trkpt lat="48.81921" lon="-3.34837">
        <ele>8</ele>
        <time>2018-04-23T14:26:54+02:00</time>
      </trkpt>
      <trkpt lat="48.81913" lon="-3.3483">
        <ele>8</ele>
        <time>2018-04-23T14:27:04+02:00</time>
      </trkpt>
      <trkpt lat="48.81902" lon="-3.3482">
        <ele>9</ele>
        <time>2018-04-23T14:27:14+02:00</time>
      </trkpt>
      <trkpt lat="48.81893" lon="-3.3481">
        <ele>9</ele>
        <time>2018-04-23T14:27:24+02:00</time>
      </trkpt>
      <trkpt lat="48.81887" lon="-3.34801">
        <ele>9</ele>
        <time>2018-04-23T14:27:34+02:00</time>
      </trkpt>
      <trkpt lat="48.8188" lon="-3.34803">
        <ele>9</ele>
        <time>2018-04-23T14:27:44+02:00</time>
      </trkpt>
      <trkpt lat="48.8187" lon="-3.34795">
        <ele>9</ele>
        <time>2018-04-23T14:27:54+02:00</time>
      </trkpt>
      <trkpt lat="48.81868" lon="-3.3478">
        <ele>10</ele>
        <time>2018-04-23T14:28:04+02:00</time>
      </trkpt>
      <trkpt lat="48.81858" lon="-3.34788">
        <ele>9</ele>
        <time>2018-04-23T14:28:14+02:00</time>
      </trkpt>
      <trkpt lat="48.81847" lon="-3.34788">
        <ele>8</ele>
        <time>2018-04-23T14:28:24+02:00</time>
      </trkpt>
      <trkpt lat="48.81842" lon="-3.34778">
        <ele>8</ele>
        <time>2018-04-23T14:28:34+02:00</time>
      </trkpt>
      <trkpt lat="48.81831" lon="-3.34772">
        <ele>8</ele>
        <time>2018-04-23T14:28:44+02:00</time>
      </trkpt>
      <trkpt lat="48.81822" lon="-3.34763">
        <ele>8</ele>
        <time>2018-04-23T14:28:54+02:00</time>
      </trkpt>
      <trkpt lat="48.8181" lon="-3.34754">
        <ele>8</ele>
        <time>2018-04-23T14:29:04+02:00</time>
      </trkpt>
      <trkpt lat="48.81803" lon="-3.34741">
        <ele>9</ele>
        <time>2018-04-23T14:29:14+02:00</time>
      </trkpt>
      <trkpt lat="48.81796" lon="-3.34736">
        <ele>9</ele>
        <time>2018-04-23T14:29:24+02:00</time>
      </trkpt>
      <trkpt lat="48.81784" lon="-3.34723">
        <ele>9</ele>
        <time>2018-04-23T14:29:34+02:00</time>
      </trkpt>
      <trkpt lat="48.81779" lon="-3.34722">
        <ele>9</ele>
        <time>2018-04-23T14:29:44+02:00</time>
      </trkpt>
      <trkpt lat="48.81768" lon="-3.34712">
        <ele>9</ele>
        <time>2018-04-23T14:29:54+02:00</time>
      </trkpt>
      <trkpt lat="48.81755" lon="-3.34705">
        <ele>8</ele>
        <time>2018-04-23T14:30:04+02:00</time>
      </trkpt>
      <trkpt lat="48.81741" lon="-3.34702">
        <ele>8</ele>
        <time>2018-04-23T14:30:14+02:00</time>
      </trkpt>
      <trkpt lat="48.81733" lon="-3.34705">
        <ele>8</ele>
        <time>2018-04-23T14:30:24+02:00</time>
      </trkpt>
      <trkpt lat="48.81725" lon="-3.3471">
        <ele>8</ele>
        <time>2018-04-23T14:30:34+02:00</time>
      </trkpt>
      <trkpt lat="48.81714" lon="-3.34704">
        <ele>8</ele>
        <time>2018-04-23T14:30:44+02:00</time>
      </trkpt>
      <trkpt lat="48.81708" lon="-3.34707">
        <ele>8</ele>
        <time>2018-04-23T14:30:54+02:00</time>
      </trkpt>
      <trkpt lat="48.81709" lon="-3.34718">
        <ele>7</ele>
        <time>2018-04-23T14:31:04+02:00</time>
      </trkpt>
      <trkpt lat="48.81707" lon="-3.34722">
        <ele>7</ele>
        <time>2018-04-23T14:31:14+02:00</time>
      </trkpt>
      <trkpt lat="48.81701" lon="-3.34735">
        <ele>7</ele>
        <time>2018-04-23T14:31:24+02:00</time>
      </trkpt>
      <trkpt lat="48.81696" lon="-3.34755">
        <ele>6</ele>
        <time>2018-04-23T14:31:34+02:00</time>
      </trkpt>
      <trkpt lat="48.8169" lon="-3.34769">
        <ele>6</ele>
        <time>2018-04-23T14:31:44+02:00</time>
      </trkpt>
      <trkpt lat="48.81687" lon="-3.34776">
        <ele>6</ele>
        <time>2018-04-23T14:31:54+02:00</time>
      </trkpt>
      <trkpt lat="48.81674" lon="-3.34795">
        <ele>6</ele>
        <time>2018-04-23T14:32:04+02:00</time>
      </trkpt>
      <trkpt lat="48.81666" lon="-3.34811">
        <ele>5</ele>
        <time>2018-04-23T14:32:14+02:00</time>
      </trkpt>
      <trkpt lat="48.81664" lon="-3.34827">
        <ele>5</ele>
        <time>2018-04-23T14:32:24+02:00</time>
      </trkpt>
      <trkpt lat="48.8166" lon="-3.34842">
        <ele>5</ele>
        <time>2018-04-23T14:32:34+02:00</time>
      </trkpt>
      <trkpt lat="48.8166" lon="-3.3486">
        <ele>5</ele>
        <time>2018-04-23T14:32:44+02:00</time>
      </trkpt>
      <trkpt lat="48.81656" lon="-3.34874">
        <ele>6</ele>
        <time>2018-04-23T14:32:54+02:00</time>
      </trkpt>
      <trkpt lat="48.81655" lon="-3.34892">
        <ele>6</ele>
        <time>2018-04-23T14:33:04+02:00</time>
      </trkpt>
      <trkpt lat="48.81649" lon="-3.34887">
        <ele>6</ele>
        <time>2018-04-23T14:33:14+02:00</time>
      </trkpt>
      <trkpt lat="48.81643" lon="-3.3488">
        <ele>6</ele>
        <time>2018-04-23T14:33:24+02:00</time>
      </trkpt>
      <trkpt lat="48.81632" lon="-3.34877">
        <ele>6</ele>
        <time>2018-04-23T14:33:34+02:00</time>
      </trkpt>
      <trkpt lat="48.81621" lon="-3.34866">
        <ele>6</ele>
        <time>2018-04-23T14:33:44+02:00</time>
      </trkpt>
      <trkpt lat="48.81611" lon="-3.34856">
        <ele>6</ele>
        <time>2018-04-23T14:33:54+02:00</time>
      </trkpt>
      <trkpt lat="48.816" lon="-3.34846">
        <ele>6</ele>
        <time>2018-04-23T14:34:04+02:00</time>
      </trkpt>
      <trkpt lat="48.81589" lon="-3.34835">
        <ele>6</ele>
        <time>2018-04-23T14:34:14+02:00</time>
      </trkpt>
      <trkpt lat="48.81579" lon="-3.34826">
        <ele>6</ele>
        <time>2018-04-23T14:34:24+02:00</time>
      </trkpt>
      <trkpt lat="48.8157" lon="-3.34813">
        <ele>6</ele>
        <time>2018-04-23T14:34:34+02:00</time>
      </trkpt>
      <trkpt lat="48.81561" lon="-3.34806">
        <ele>7</ele>
        <time>2018-04-23T14:34:44+02:00</time>
      </trkpt>
      <trkpt lat="48.81553" lon="-3.34796">
        <ele>7</ele>
        <time>2018-04-23T14:34:54+02:00</time>
      </trkpt>
      <trkpt lat="48.81547" lon="-3.3478">
        <ele>7</ele>
        <time>2018-04-23T14:35:04+02:00</time>
      </trkpt>
      <trkpt lat="48.81549" lon="-3.34766">
        <ele>7</ele>
        <time>2018-04-23T14:35:14+02:00</time>
      </trkpt>
      <trkpt lat="48.81546" lon="-3.3475">
        <ele>7</ele>
        <time>2018-04-23T14:35:24+02:00</time>
      </trkpt>
      <trkpt lat="48.81547" lon="-3.34731">
        <ele>7</ele>
        <time>2018-04-23T14:35:34+02:00</time>
      </trkpt>
      <trkpt lat="48.81549" lon="-3.34712">
        <ele>7</ele>
        <time>2018-04-23T14:35:44+02:00</time>
      </trkpt>
      <trkpt lat="48.81553" lon="-3.34699">
        <ele>7</ele>
        <time>2018-04-23T14:35:54+02:00</time>
      </trkpt>
      <trkpt lat="48.81552" lon="-3.34683">
        <ele>7</ele>
        <time>2018-04-23T14:36:04+02:00</time>
      </trkpt>
      <trkpt lat="48.81559" lon="-3.34665">
        <ele>7</ele>
        <time>2018-04-23T14:36:14+02:00</time>
      </trkpt>
      <trkpt lat="48.81562" lon="-3.34645">
        <ele>8</ele>
        <time>2018-04-23T14:36:24+02:00</time>
      </trkpt>
      <trkpt lat="48.81565" lon="-3.34629">
        <ele>9</ele>
        <time>2018-04-23T14:36:34+02:00</time>
      </trkpt>
      <trkpt lat="48.81568" lon="-3.34615">
        <ele>9</ele>
        <time>2018-04-23T14:36:44+02:00</time>
      </trkpt>
      <trkpt lat="48.81561" lon="-3.34603">
        <ele>10</ele>
        <time>2018-04-23T14:36:54+02:00</time>
      </trkpt>
      <trkpt lat="48.81562" lon="-3.34589">
        <ele>11</ele>
        <time>2018-04-23T14:37:04+02:00</time>
      </trkpt>
      <trkpt lat="48.81565" lon="-3.34573">
        <ele>13</ele>
        <time>2018-04-23T14:37:14+02:00</time>
      </trkpt>
      <trkpt lat="48.81565" lon="-3.34558">
        <ele>14</ele>
        <time>2018-04-23T14:37:24+02:00</time>
      </trkpt>
      <trkpt lat="48.81564" lon="-3.34543">
        <ele>16</ele>
        <time>2018-04-23T14:37:34+02:00</time>
      </trkpt>
      <trkpt lat="48.81565" lon="-3.34531">
        <ele>18</ele>
        <time>2018-04-23T14:37:44+02:00</time>
      </trkpt>
      <trkpt lat="48.81568" lon="-3.34526">
        <ele>18</ele>
        <time>2018-04-23T14:37:54+02:00</time>
      </trkpt>
      <trkpt lat="48.81575" lon="-3.34522">
        <ele>18</ele>
        <time>2018-04-23T14:38:04+02:00</time>
      </trkpt>
      <trkpt lat="48.81586" lon="-3.3452">
        <ele>19</ele>
        <time>2018-04-23T14:38:14+02:00</time>
      </trkpt>
      <trkpt lat="48.81598" lon="-3.3452">
        <ele>18</ele>
        <time>2018-04-23T14:38:24+02:00</time>
      </trkpt>
      <trkpt lat="48.81612" lon="-3.34515">
        <ele>19</ele>
        <time>2018-04-23T14:38:34+02:00</time>
      </trkpt>
      <trkpt lat="48.81622" lon="-3.34518">
        <ele>18</ele>
        <time>2018-04-23T14:38:44+02:00</time>
      </trkpt>
      <trkpt lat="48.81634" lon="-3.34512">
        <ele>19</ele>
        <time>2018-04-23T14:38:54+02:00</time>
      </trkpt>
      <trkpt lat="48.81643" lon="-3.34508">
        <ele>19</ele>
        <time>2018-04-23T14:39:04+02:00</time>
      </trkpt>
      <trkpt lat="48.81653" lon="-3.34505">
        <ele>19</ele>
        <time>2018-04-23T14:39:14+02:00</time>
      </trkpt>
      <trkpt lat="48.81661" lon="-3.34503">
        <ele>19</ele>
        <time>2018-04-23T14:39:24+02:00</time>
      </trkpt>
      <trkpt lat="48.81664" lon="-3.3449">
        <ele>21</ele>
        <time>2018-04-23T14:39:34+02:00</time>
      </trkpt>
      <trkpt lat="48.81656" lon="-3.34484">
        <ele>22</ele>
        <time>2018-04-23T14:39:44+02:00</time>
      </trkpt>
      <trkpt lat="48.8165" lon="-3.34477">
        <ele>23</ele>
        <time>2018-04-23T14:39:54+02:00</time>
      </trkpt>
      <trkpt lat="48.81642" lon="-3.34468">
        <ele>25</ele>
        <time>2018-04-23T14:40:04+02:00</time>
      </trkpt>
      <trkpt lat="48.81635" lon="-3.34458">
        <ele>27</ele>
        <time>2018-04-23T14:40:14+02:00</time>
      </trkpt>
      <trkpt lat="48.81627" lon="-3.34453">
        <ele>28</ele>
        <time>2018-04-23T14:40:24+02:00</time>
      </trkpt>
      <trkpt lat="48.81618" lon="-3.34451">
        <ele>28</ele>
        <time>2018-04-23T14:40:34+02:00</time>
      </trkpt>
      <trkpt lat="48.81614" lon="-3.34449">
        <ele>29</ele>
        <time>2018-04-23T14:40:44+02:00</time>
      </trkpt>
      <trkpt lat="48.816" lon="-3.34447">
        <ele>29</ele>
        <time>2018-04-23T14:40:54+02:00</time>
      </trkpt>
      <trkpt lat="48.8159" lon="-3.34448">
        <ele>29</ele>
        <time>2018-04-23T14:41:04+02:00</time>
      </trkpt>
      <trkpt lat="48.81582" lon="-3.3445">
        <ele>29</ele>
        <time>2018-04-23T14:41:14+02:00</time>
      </trkpt>
      <trkpt lat="48.81573" lon="-3.34452">
        <ele>29</ele>
        <time>2018-04-23T14:41:24+02:00</time>
      </trkpt>
      <trkpt lat="48.81563" lon="-3.34454">
        <ele>29</ele>
        <time>2018-04-23T14:41:34+02:00</time>
      </trkpt>
      <trkpt lat="48.81552" lon="-3.34451">
        <ele>29</ele>
        <time>2018-04-23T14:41:44+02:00</time>
      </trkpt>
      <trkpt lat="48.81543" lon="-3.34453">
        <ele>29</ele>
        <time>2018-04-23T14:41:54+02:00</time>
      </trkpt>
      <trkpt lat="48.81535" lon="-3.34448">
        <ele>29</ele>
        <time>2018-04-23T14:42:04+02:00</time>
      </trkpt>
      <trkpt lat="48.81526" lon="-3.34442">
        <ele>30</ele>
        <time>2018-04-23T14:42:14+02:00</time>
      </trkpt>
      <trkpt lat="48.81519" lon="-3.3444">
        <ele>30</ele>
        <time>2018-04-23T14:42:24+02:00</time>
      </trkpt>
      <trkpt lat="48.8151" lon="-3.34435">
        <ele>30</ele>
        <time>2018-04-23T14:42:34+02:00</time>
      </trkpt>
      <trkpt lat="48.81507" lon="-3.34425">
        <ele>31</ele>
        <time>2018-04-23T14:42:44+02:00</time>
      </trkpt>
      <trkpt lat="48.81506" lon="-3.34414">
        <ele>33</ele>
        <time>2018-04-23T14:42:54+02:00</time>
      </trkpt>
      <trkpt lat="48.81504" lon="-3.344">
        <ele>34</ele>
        <time>2018-04-23T14:43:04+02:00</time>
      </trkpt>
      <trkpt lat="48.81504" lon="-3.34386">
        <ele>36</ele>
        <time>2018-04-23T14:43:14+02:00</time>
      </trkpt>
      <trkpt lat="48.81505" lon="-3.34373">
        <ele>37</ele>
        <time>2018-04-23T14:43:24+02:00</time>
      </trkpt>
      <trkpt lat="48.81504" lon="-3.34359">
        <ele>39</ele>
        <time>2018-04-23T14:43:34+02:00</time>
      </trkpt>
      <trkpt lat="48.81504" lon="-3.34343">
        <ele>41</ele>
        <time>2018-04-23T14:43:44+02:00</time>
      </trkpt>
      <trkpt lat="48.81507" lon="-3.34333">
        <ele>42</ele>
        <time>2018-04-23T14:43:54+02:00</time>
      </trkpt>
      <trkpt lat="48.81521" lon="-3.3433">
        <ele>43</ele>
        <time>2018-04-23T14:44:04+02:00</time>
      </trkpt>
      <trkpt lat="48.81531" lon="-3.34329">
        <ele>43</ele>
        <time>2018-04-23T14:44:14+02:00</time>
      </trkpt>
      <trkpt lat="48.8154" lon="-3.34328">
        <ele>43</ele>
        <time>2018-04-23T14:44:24+02:00</time>
      </trkpt>
      <trkpt lat="48.81547" lon="-3.34327">
        <ele>43</ele>
        <time>2018-04-23T14:44:34+02:00</time>
      </trkpt>
      <trkpt lat="48.81561" lon="-3.34324">
        <ele>44</ele>
        <time>2018-04-23T14:44:44+02:00</time>
      </trkpt>
      <trkpt lat="48.81569" lon="-3.34313">
        <ele>44</ele>
        <time>2018-04-23T14:44:54+02:00</time>
      </trkpt>
      <trkpt lat="48.8157" lon="-3.34297">
        <ele>45</ele>
        <time>2018-04-23T14:45:04+02:00</time>
      </trkpt>
      <trkpt lat="48.81568" lon="-3.34284">
        <ele>46</ele>
        <time>2018-04-23T14:45:14+02:00</time>
      </trkpt>
      <trkpt lat="48.81572" lon="-3.34268">
        <ele>46</ele>
        <time>2018-04-23T14:45:24+02:00</time>
      </trkpt>
      <trkpt lat="48.81574" lon="-3.3425">
        <ele>47</ele>
        <time>2018-04-23T14:45:34+02:00</time>
      </trkpt>
      <trkpt lat="48.81574" lon="-3.34234">
        <ele>48</ele>
        <time>2018-04-23T14:45:44+02:00</time>
      </trkpt>
      <trkpt lat="48.81576" lon="-3.34216">
        <ele>48</ele>
        <time>2018-04-23T14:45:54+02:00</time>
      </trkpt>
      <trkpt lat="48.81577" lon="-3.34197">
        <ele>49</ele>
        <time>2018-04-23T14:46:04+02:00</time>
      </trkpt>
      <trkpt lat="48.81579" lon="-3.34186">
        <ele>49</ele>
        <time>2018-04-23T14:46:14+02:00</time>
      </trkpt>
      <trkpt lat="48.81583" lon="-3.3417">
        <ele>50</ele>
        <time>2018-04-23T14:46:24+02:00</time>
      </trkpt>
      <trkpt lat="48.81587" lon="-3.34153">
        <ele>50</ele>
        <time>2018-04-23T14:46:34+02:00</time>
      </trkpt>
      <trkpt lat="48.81589" lon="-3.34136">
        <ele>51</ele>
        <time>2018-04-23T14:46:44+02:00</time>
      </trkpt>
      <trkpt lat="48.81594" lon="-3.34119">
        <ele>51</ele>
        <time>2018-04-23T14:46:54+02:00</time>
      </trkpt>
      <trkpt lat="48.816" lon="-3.34105">
        <ele>51</ele>
        <time>2018-04-23T14:47:04+02:00</time>
      </trkpt>
      <trkpt lat="48.81599" lon="-3.34088">
        <ele>52</ele>
        <time>2018-04-23T14:47:14+02:00</time>
      </trkpt>
      <trkpt lat="48.81595" lon="-3.3408">
        <ele>52</ele>
        <time>2018-04-23T14:47:24+02:00</time>
      </trkpt>
      <trkpt lat="48.81585" lon="-3.34066">
        <ele>53</ele>
        <time>2018-04-23T14:47:34+02:00</time>
      </trkpt>
      <trkpt lat="48.81577" lon="-3.34055">
        <ele>53</ele>
        <time>2018-04-23T14:47:44+02:00</time>
      </trkpt>
      <trkpt lat="48.81569" lon="-3.34044">
        <ele>53</ele>
        <time>2018-04-23T14:47:54+02:00</time>
      </trkpt>
      <trkpt lat="48.81565" lon="-3.3403">
        <ele>53</ele>
        <time>2018-04-23T14:48:04+02:00</time>
      </trkpt>
      <trkpt lat="48.81558" lon="-3.34018">
        <ele>53</ele>
        <time>2018-04-23T14:48:14+02:00</time>
      </trkpt>
      <trkpt lat="48.81547" lon="-3.34002">
        <ele>54</ele>
        <time>2018-04-23T14:48:24+02:00</time>
      </trkpt>
      <trkpt lat="48.81538" lon="-3.33995">
        <ele>54</ele>
        <time>2018-04-23T14:48:34+02:00</time>
      </trkpt>
      <trkpt lat="48.81532" lon="-3.33983">
        <ele>54</ele>
        <time>2018-04-23T14:48:44+02:00</time>
      </trkpt>
      <trkpt lat="48.81526" lon="-3.3397">
        <ele>54</ele>
        <time>2018-04-23T14:48:54+02:00</time>
      </trkpt>
      <trkpt lat="48.81518" lon="-3.33956">
        <ele>54</ele>
        <time>2018-04-23T14:49:04+02:00</time>
      </trkpt>
      <trkpt lat="48.81509" lon="-3.3394">
        <ele>54</ele>
        <time>2018-04-23T14:49:14+02:00</time>
      </trkpt>
      <trkpt lat="48.81504" lon="-3.33924">
        <ele>54</ele>
        <time>2018-04-23T14:49:24+02:00</time>
      </trkpt>
      <trkpt lat="48.81499" lon="-3.33915">
        <ele>54</ele>
        <time>2018-04-23T14:49:34+02:00</time>
      </trkpt>
      <trkpt lat="48.81496" lon="-3.33899">
        <ele>54</ele>
        <time>2018-04-23T14:49:44+02:00</time>
      </trkpt>
      <trkpt lat="48.81494" lon="-3.33885">
        <ele>54</ele>
        <time>2018-04-23T14:49:54+02:00</time>
      </trkpt>
      <trkpt lat="48.81492" lon="-3.33872">
        <ele>54</ele>
        <time>2018-04-23T14:50:04+02:00</time>
      </trkpt>
      <trkpt lat="48.81488" lon="-3.33857">
        <ele>54</ele>
        <time>2018-04-23T14:50:14+02:00</time>
      </trkpt>
      <trkpt lat="48.81486" lon="-3.33846">
        <ele>54</ele>
        <time>2018-04-23T14:50:24+02:00</time>
      </trkpt>
      <trkpt lat="48.81487" lon="-3.33839">
        <ele>54</ele>
        <time>2018-04-23T14:50:34+02:00</time>
      </trkpt>
      <trkpt lat="48.81487" lon="-3.33824">
        <ele>54</ele>
        <time>2018-04-23T14:50:44+02:00</time>
      </trkpt>
      <trkpt lat="48.81484" lon="-3.33808">
        <ele>54</ele>
        <time>2018-04-23T14:50:54+02:00</time>
      </trkpt>
      <trkpt lat="48.81481" lon="-3.33793">
        <ele>54</ele>
        <time>2018-04-23T14:51:04+02:00</time>
      </trkpt>
      <trkpt lat="48.81478" lon="-3.3378">
        <ele>54</ele>
        <time>2018-04-23T14:51:14+02:00</time>
      </trkpt>
      <trkpt lat="48.81482" lon="-3.33766">
        <ele>54</ele>
        <time>2018-04-23T14:51:24+02:00</time>
      </trkpt>
      <trkpt lat="48.81486" lon="-3.33757">
        <ele>54</ele>
        <time>2018-04-23T14:51:34+02:00</time>
      </trkpt>
      <trkpt lat="48.81493" lon="-3.33746">
        <ele>54</ele>
        <time>2018-04-23T14:51:44+02:00</time>
      </trkpt>
      <trkpt lat="48.81497" lon="-3.33733">
        <ele>54</ele>
        <time>2018-04-23T14:51:54+02:00</time>
      </trkpt>
      <trkpt lat="48.81505" lon="-3.3372">
        <ele>55</ele>
        <time>2018-04-23T14:52:04+02:00</time>
      </trkpt>
      <trkpt lat="48.8151" lon="-3.33704">
        <ele>55</ele>
        <time>2018-04-23T14:52:14+02:00</time>
      </trkpt>
      <trkpt lat="48.81511" lon="-3.33692">
        <ele>55</ele>
        <time>2018-04-23T14:52:24+02:00</time>
      </trkpt>
      <trkpt lat="48.81509" lon="-3.33691">
        <ele>55</ele>
        <time>2018-04-23T14:52:34+02:00</time>
      </trkpt>
      <trkpt lat="48.81509" lon="-3.3369">
        <ele>56</ele>
        <time>2018-04-23T14:53:29+02:00</time>
      </trkpt>
      <trkpt lat="48.8151" lon="-3.33687">
        <ele>56</ele>
        <time>2018-04-23T14:53:39+02:00</time>
      </trkpt>
      <trkpt lat="48.81517" lon="-3.33683">
        <ele>56</ele>
        <time>2018-04-23T14:53:49+02:00</time>
      </trkpt>
      <trkpt lat="48.81529" lon="-3.33682">
        <ele>56</ele>
        <time>2018-04-23T14:53:59+02:00</time>
      </trkpt>
      <trkpt lat="48.81538" lon="-3.33684">
        <ele>56</ele>
        <time>2018-04-23T14:54:09+02:00</time>
      </trkpt>
      <trkpt lat="48.81548" lon="-3.33683">
        <ele>56</ele>
        <time>2018-04-23T14:54:19+02:00</time>
      </trkpt>
      <trkpt lat="48.81561" lon="-3.33685">
        <ele>56</ele>
        <time>2018-04-23T14:54:29+02:00</time>
      </trkpt>
      <trkpt lat="48.81572" lon="-3.33686">
        <ele>56</ele>
        <time>2018-04-23T14:54:39+02:00</time>
      </trkpt>
      <trkpt lat="48.81583" lon="-3.33685">
        <ele>56</ele>
        <time>2018-04-23T14:54:49+02:00</time>
      </trkpt>
      <trkpt lat="48.81593" lon="-3.33692">
        <ele>56</ele>
        <time>2018-04-23T14:54:59+02:00</time>
      </trkpt>
      <trkpt lat="48.81599" lon="-3.33685">
        <ele>56</ele>
        <time>2018-04-23T14:55:09+02:00</time>
      </trkpt>
      <trkpt lat="48.81606" lon="-3.33669">
        <ele>56</ele>
        <time>2018-04-23T14:55:19+02:00</time>
      </trkpt>
      <trkpt lat="48.81613" lon="-3.33657">
        <ele>56</ele>
        <time>2018-04-23T14:55:29+02:00</time>
      </trkpt>
      <trkpt lat="48.81621" lon="-3.3364">
        <ele>56</ele>
        <time>2018-04-23T14:55:39+02:00</time>
      </trkpt>
      <trkpt lat="48.81623" lon="-3.33627">
        <ele>56</ele>
        <time>2018-04-23T14:55:49+02:00</time>
      </trkpt>
      <trkpt lat="48.81628" lon="-3.33611">
        <ele>56</ele>
        <time>2018-04-23T14:55:59+02:00</time>
      </trkpt>
      <trkpt lat="48.81632" lon="-3.33596">
        <ele>57</ele>
        <time>2018-04-23T14:56:09+02:00</time>
      </trkpt>
      <trkpt lat="48.8164" lon="-3.33581">
        <ele>57</ele>
        <time>2018-04-23T14:56:19+02:00</time>
      </trkpt>
      <trkpt lat="48.81645" lon="-3.33567">
        <ele>57</ele>
        <time>2018-04-23T14:56:29+02:00</time>
      </trkpt>
      <trkpt lat="48.81651" lon="-3.33558">
        <ele>57</ele>
        <time>2018-04-23T14:56:39+02:00</time>
      </trkpt>
      <trkpt lat="48.81658" lon="-3.33543">
        <ele>57</ele>
        <time>2018-04-23T14:56:49+02:00</time>
      </trkpt>
      <trkpt lat="48.81666" lon="-3.3353">
        <ele>57</ele>
        <time>2018-04-23T14:56:59+02:00</time>
      </trkpt>
      <trkpt lat="48.8167" lon="-3.33513">
        <ele>57</ele>
        <time>2018-04-23T14:57:09+02:00</time>
      </trkpt>
      <trkpt lat="48.81668" lon="-3.335">
        <ele>57</ele>
        <time>2018-04-23T14:57:19+02:00</time>
      </trkpt>
      <trkpt lat="48.81667" lon="-3.33479">
        <ele>57</ele>
        <time>2018-04-23T14:57:29+02:00</time>
      </trkpt>
      <trkpt lat="48.81666" lon="-3.33466">
        <ele>57</ele>
        <time>2018-04-23T14:57:39+02:00</time>
      </trkpt>
      <trkpt lat="48.81664" lon="-3.3345">
        <ele>57</ele>
        <time>2018-04-23T14:57:49+02:00</time>
      </trkpt>
      <trkpt lat="48.81661" lon="-3.33434">
        <ele>56</ele>
        <time>2018-04-23T14:57:59+02:00</time>
      </trkpt>
      <trkpt lat="48.81659" lon="-3.33419">
        <ele>56</ele>
        <time>2018-04-23T14:58:09+02:00</time>
      </trkpt>
      <trkpt lat="48.81657" lon="-3.33404">
        <ele>56</ele>
        <time>2018-04-23T14:58:19+02:00</time>
      </trkpt>
      <trkpt lat="48.81657" lon="-3.33387">
        <ele>56</ele>
        <time>2018-04-23T14:58:29+02:00</time>
      </trkpt>
      <trkpt lat="48.81658" lon="-3.33371">
        <ele>56</ele>
        <time>2018-04-23T14:58:39+02:00</time>
      </trkpt>
      <trkpt lat="48.81657" lon="-3.33355">
        <ele>56</ele>
        <time>2018-04-23T14:58:49+02:00</time>
      </trkpt>
      <trkpt lat="48.81661" lon="-3.33341">
        <ele>55</ele>
        <time>2018-04-23T14:58:59+02:00</time>
      </trkpt>
      <trkpt lat="48.81669" lon="-3.33332">
        <ele>55</ele>
        <time>2018-04-23T14:59:09+02:00</time>
      </trkpt>
      <trkpt lat="48.81679" lon="-3.33327">
        <ele>55</ele>
        <time>2018-04-23T14:59:19+02:00</time>
      </trkpt>
      <trkpt lat="48.81684" lon="-3.3332">
        <ele>55</ele>
        <time>2018-04-23T14:59:29+02:00</time>
      </trkpt>
      <trkpt lat="48.81684" lon="-3.3331">
        <ele>55</ele>
        <time>2018-04-23T14:59:39+02:00</time>
      </trkpt>
      <trkpt lat="48.81682" lon="-3.33297">
        <ele>55</ele>
        <time>2018-04-23T14:59:49+02:00</time>
      </trkpt>
      <trkpt lat="48.81684" lon="-3.33281">
        <ele>55</ele>
        <time>2018-04-23T14:59:59+02:00</time>
      </trkpt>
      <trkpt lat="48.81686" lon="-3.33265">
        <ele>55</ele>
        <time>2018-04-23T15:00:09+02:00</time>
      </trkpt>
      <trkpt lat="48.81684" lon="-3.33261">
        <ele>55</ele>
        <time>2018-04-23T15:00:19+02:00</time>
      </trkpt>
      <trkpt lat="48.81679" lon="-3.33248">
        <ele>56</ele>
        <time>2018-04-23T15:00:29+02:00</time>
      </trkpt>
      <trkpt lat="48.81678" lon="-3.33237">
        <ele>56</ele>
        <time>2018-04-23T15:00:39+02:00</time>
      </trkpt>
      <trkpt lat="48.81679" lon="-3.33225">
        <ele>56</ele>
        <time>2018-04-23T15:00:49+02:00</time>
      </trkpt>
      <trkpt lat="48.81676" lon="-3.33212">
        <ele>57</ele>
        <time>2018-04-23T15:00:59+02:00</time>
      </trkpt>
      <trkpt lat="48.81676" lon="-3.332">
        <ele>57</ele>
        <time>2018-04-23T15:01:09+02:00</time>
      </trkpt>
      <trkpt lat="48.81675" lon="-3.33196">
        <ele>57</ele>
        <time>2018-04-23T15:01:19+02:00</time>
      </trkpt>
      <trkpt lat="48.81668" lon="-3.3319">
        <ele>57</ele>
        <time>2018-04-23T15:01:29+02:00</time>
      </trkpt>
      <trkpt lat="48.81658" lon="-3.3318">
        <ele>58</ele>
        <time>2018-04-23T15:01:39+02:00</time>
      </trkpt>
      <trkpt lat="48.81652" lon="-3.33173">
        <ele>58</ele>
        <time>2018-04-23T15:01:49+02:00</time>
      </trkpt>
      <trkpt lat="48.81645" lon="-3.33166">
        <ele>59</ele>
        <time>2018-04-23T15:01:59+02:00</time>
      </trkpt>
      <trkpt lat="48.81643" lon="-3.33163">
        <ele>59</ele>
        <time>2018-04-23T15:02:09+02:00</time>
      </trkpt>
      <trkpt lat="48.81644" lon="-3.33162">
        <ele>59</ele>
        <time>2018-04-23T15:02:19+02:00</time>
      </trkpt>
      <trkpt lat="48.81646" lon="-3.33162">
        <ele>59</ele>
        <time>2018-04-23T15:02:29+02:00</time>
      </trkpt>
      <trkpt lat="48.81647" lon="-3.33161">
        <ele>59</ele>
        <time>2018-04-23T15:02:47+02:00</time>
      </trkpt>
      <trkpt lat="48.81646" lon="-3.3316">
        <ele>59</ele>
        <time>2018-04-23T15:04:53+02:00</time>
      </trkpt>
      <trkpt lat="48.81645" lon="-3.33161">
        <ele>59</ele>
        <time>2018-04-23T15:05:15+02:00</time>
      </trkpt>
      <trkpt lat="48.81634" lon="-3.3316">
        <ele>59</ele>
        <time>2018-04-23T15:05:25+02:00</time>
      </trkpt>
      <trkpt lat="48.81625" lon="-3.33157">
        <ele>60</ele>
        <time>2018-04-23T15:05:35+02:00</time>
      </trkpt>
      <trkpt lat="48.81613" lon="-3.33157">
        <ele>60</ele>
        <time>2018-04-23T15:05:45+02:00</time>
      </trkpt>
      <trkpt lat="48.81601" lon="-3.33156">
        <ele>60</ele>
        <time>2018-04-23T15:05:55+02:00</time>
      </trkpt>
      <trkpt lat="48.8159" lon="-3.33153">
        <ele>61</ele>
        <time>2018-04-23T15:06:05+02:00</time>
      </trkpt>
      <trkpt lat="48.8158" lon="-3.33151">
        <ele>61</ele>
        <time>2018-04-23T15:06:15+02:00</time>
      </trkpt>
      <trkpt lat="48.81569" lon="-3.33148">
        <ele>62</ele>
        <time>2018-04-23T15:06:25+02:00</time>
      </trkpt>
      <trkpt lat="48.8156" lon="-3.33146">
        <ele>62</ele>
        <time>2018-04-23T15:06:35+02:00</time>
      </trkpt>
      <trkpt lat="48.8155" lon="-3.33146">
        <ele>62</ele>
        <time>2018-04-23T15:06:45+02:00</time>
      </trkpt>
      <trkpt lat="48.81539" lon="-3.33142">
        <ele>63</ele>
        <time>2018-04-23T15:06:55+02:00</time>
      </trkpt>
      <trkpt lat="48.8152" lon="-3.3315">
        <ele>64</ele>
        <time>2018-04-23T15:07:05+02:00</time>
      </trkpt>
      <trkpt lat="48.81518" lon="-3.33151">
        <ele>64</ele>
        <time>2018-04-23T15:07:15+02:00</time>
      </trkpt>
      <trkpt lat="48.81507" lon="-3.3315">
        <ele>64</ele>
        <time>2018-04-23T15:07:25+02:00</time>
      </trkpt>
      <trkpt lat="48.81495" lon="-3.33154">
        <ele>65</ele>
        <time>2018-04-23T15:07:35+02:00</time>
      </trkpt>
      <trkpt lat="48.81483" lon="-3.33158">
        <ele>66</ele>
        <time>2018-04-23T15:07:45+02:00</time>
      </trkpt>
      <trkpt lat="48.81474" lon="-3.33162">
        <ele>66</ele>
        <time>2018-04-23T15:07:55+02:00</time>
      </trkpt>
      <trkpt lat="48.81464" lon="-3.33166">
        <ele>66</ele>
        <time>2018-04-23T15:08:05+02:00</time>
      </trkpt>
      <trkpt lat="48.81456" lon="-3.33169">
        <ele>67</ele>
        <time>2018-04-23T15:08:15+02:00</time>
      </trkpt>
      <trkpt lat="48.81445" lon="-3.33178">
        <ele>67</ele>
        <time>2018-04-23T15:08:25+02:00</time>
      </trkpt>
      <trkpt lat="48.81436" lon="-3.33183">
        <ele>67</ele>
        <time>2018-04-23T15:08:35+02:00</time>
      </trkpt>
      <trkpt lat="48.81426" lon="-3.33194">
        <ele>68</ele>
        <time>2018-04-23T15:08:45+02:00</time>
      </trkpt>
      <trkpt lat="48.81418" lon="-3.33204">
        <ele>68</ele>
        <time>2018-04-23T15:08:55+02:00</time>
      </trkpt>
      <trkpt lat="48.81412" lon="-3.33221">
        <ele>69</ele>
        <time>2018-04-23T15:09:05+02:00</time>
      </trkpt>
      <trkpt lat="48.81409" lon="-3.33238">
        <ele>69</ele>
        <time>2018-04-23T15:09:15+02:00</time>
      </trkpt>
      <trkpt lat="48.8141" lon="-3.3325">
        <ele>69</ele>
        <time>2018-04-23T15:09:25+02:00</time>
      </trkpt>
      <trkpt lat="48.81408" lon="-3.33269">
        <ele>69</ele>
        <time>2018-04-23T15:09:35+02:00</time>
      </trkpt>
      <trkpt lat="48.81404" lon="-3.33289">
        <ele>69</ele>
        <time>2018-04-23T15:09:45+02:00</time>
      </trkpt>
      <trkpt lat="48.81402" lon="-3.33302">
        <ele>68</ele>
        <time>2018-04-23T15:09:55+02:00</time>
      </trkpt>
      <trkpt lat="48.814" lon="-3.33317">
        <ele>68</ele>
        <time>2018-04-23T15:10:05+02:00</time>
      </trkpt>
      <trkpt lat="48.81394" lon="-3.33333">
        <ele>68</ele>
        <time>2018-04-23T15:10:15+02:00</time>
      </trkpt>
      <trkpt lat="48.81383" lon="-3.33343">
        <ele>68</ele>
        <time>2018-04-23T15:10:25+02:00</time>
      </trkpt>
      <trkpt lat="48.81371" lon="-3.3335">
        <ele>68</ele>
        <time>2018-04-23T15:10:35+02:00</time>
      </trkpt>
      <trkpt lat="48.8136" lon="-3.33353">
        <ele>68</ele>
        <time>2018-04-23T15:10:45+02:00</time>
      </trkpt>
      <trkpt lat="48.8135" lon="-3.33353">
        <ele>69</ele>
        <time>2018-04-23T15:10:55+02:00</time>
      </trkpt>
      <trkpt lat="48.81336" lon="-3.33358">
        <ele>69</ele>
        <time>2018-04-23T15:11:05+02:00</time>
      </trkpt>
      <trkpt lat="48.81325" lon="-3.3336">
        <ele>70</ele>
        <time>2018-04-23T15:11:15+02:00</time>
      </trkpt>
      <trkpt lat="48.81317" lon="-3.33363">
        <ele>70</ele>
        <time>2018-04-23T15:11:25+02:00</time>
      </trkpt>
      <trkpt lat="48.81306" lon="-3.33369">
        <ele>70</ele>
        <time>2018-04-23T15:11:35+02:00</time>
      </trkpt>
      <trkpt lat="48.81297" lon="-3.33377">
        <ele>70</ele>
        <time>2018-04-23T15:11:45+02:00</time>
      </trkpt>
      <trkpt lat="48.81296" lon="-3.33382">
        <ele>69</ele>
        <time>2018-04-23T15:11:55+02:00</time>
      </trkpt>
      <trkpt lat="48.81294" lon="-3.33393">
        <ele>69</ele>
        <time>2018-04-23T15:12:05+02:00</time>
      </trkpt>
      <trkpt lat="48.81294" lon="-3.33412">
        <ele>69</ele>
        <time>2018-04-23T15:12:15+02:00</time>
      </trkpt>
      <trkpt lat="48.81297" lon="-3.33432">
        <ele>68</ele>
        <time>2018-04-23T15:12:25+02:00</time>
      </trkpt>
      <trkpt lat="48.81295" lon="-3.33448">
        <ele>68</ele>
        <time>2018-04-23T15:12:35+02:00</time>
      </trkpt>
      <trkpt lat="48.81293" lon="-3.33466">
        <ele>67</ele>
        <time>2018-04-23T15:12:45+02:00</time>
      </trkpt>
      <trkpt lat="48.81291" lon="-3.33482">
        <ele>67</ele>
        <time>2018-04-23T15:12:55+02:00</time>
      </trkpt>
      <trkpt lat="48.81287" lon="-3.33498">
        <ele>67</ele>
        <time>2018-04-23T15:13:05+02:00</time>
      </trkpt>
      <trkpt lat="48.81288" lon="-3.33498">
        <ele>67</ele>
        <time>2018-04-23T15:13:15+02:00</time>
      </trkpt>
      <trkpt lat="48.81288" lon="-3.33499">
        <ele>67</ele>
        <time>2018-04-23T15:13:27+02:00</time>
      </trkpt>
      <trkpt lat="48.81279" lon="-3.33516">
        <ele>66</ele>
        <time>2018-04-23T15:13:37+02:00</time>
      </trkpt>
      <trkpt lat="48.81274" lon="-3.33529">
        <ele>65</ele>
        <time>2018-04-23T15:13:47+02:00</time>
      </trkpt>
      <trkpt lat="48.81278" lon="-3.33535">
        <ele>65</ele>
        <time>2018-04-23T15:13:57+02:00</time>
      </trkpt>
      <trkpt lat="48.8128" lon="-3.33537">
        <ele>65</ele>
        <time>2018-04-23T15:14:07+02:00</time>
      </trkpt>
      <trkpt lat="48.81287" lon="-3.33532">
        <ele>65</ele>
        <time>2018-04-23T15:14:17+02:00</time>
      </trkpt>
      <trkpt lat="48.81286" lon="-3.33537">
        <ele>65</ele>
        <time>2018-04-23T15:14:27+02:00</time>
      </trkpt>
      <trkpt lat="48.81286" lon="-3.33538">
        <ele>65</ele>
        <time>2018-04-23T15:14:44+02:00</time>
      </trkpt>
      <trkpt lat="48.81285" lon="-3.33539">
        <ele>65</ele>
        <time>2018-04-23T15:15:47+02:00</time>
      </trkpt>
      <trkpt lat="48.81282" lon="-3.33535">
        <ele>65</ele>
        <time>2018-04-23T15:15:57+02:00</time>
      </trkpt>
      <trkpt lat="48.8128" lon="-3.33535">
        <ele>65</ele>
        <time>2018-04-23T15:16:07+02:00</time>
      </trkpt>
      <trkpt lat="48.81279" lon="-3.33535">
        <ele>65</ele>
        <time>2018-04-23T15:16:17+02:00</time>
      </trkpt>
      <trkpt lat="48.81278" lon="-3.33533">
        <ele>65</ele>
        <time>2018-04-23T15:16:27+02:00</time>
      </trkpt>
      <trkpt lat="48.81277" lon="-3.33533">
        <ele>65</ele>
        <time>2018-04-23T15:16:53+02:00</time>
      </trkpt>
      <trkpt lat="48.81278" lon="-3.33535">
        <ele>65</ele>
        <time>2018-04-23T15:17:28+02:00</time>
      </trkpt>
      <trkpt lat="48.81275" lon="-3.33535">
        <ele>65</ele>
        <time>2018-04-23T15:17:38+02:00</time>
      </trkpt>
      <trkpt lat="48.81274" lon="-3.33531">
        <ele>65</ele>
        <time>2018-04-23T15:17:48+02:00</time>
      </trkpt>
      <trkpt lat="48.8127" lon="-3.33535">
        <ele>65</ele>
        <time>2018-04-23T15:17:58+02:00</time>
      </trkpt>
      <trkpt lat="48.81263" lon="-3.33547">
        <ele>65</ele>
        <time>2018-04-23T15:18:08+02:00</time>
      </trkpt>
      <trkpt lat="48.81254" lon="-3.3355">
        <ele>65</ele>
        <time>2018-04-23T15:18:18+02:00</time>
      </trkpt>
      <trkpt lat="48.81243" lon="-3.33553">
        <ele>65</ele>
        <time>2018-04-23T15:18:28+02:00</time>
      </trkpt>
      <trkpt lat="48.81232" lon="-3.33556">
        <ele>65</ele>
        <time>2018-04-23T15:18:38+02:00</time>
      </trkpt>
      <trkpt lat="48.81223" lon="-3.33558">
        <ele>66</ele>
        <time>2018-04-23T15:18:48+02:00</time>
      </trkpt>
      <trkpt lat="48.81211" lon="-3.3356">
        <ele>66</ele>
        <time>2018-04-23T15:18:58+02:00</time>
      </trkpt>
      <trkpt lat="48.81201" lon="-3.33564">
        <ele>66</ele>
        <time>2018-04-23T15:19:08+02:00</time>
      </trkpt>
      <trkpt lat="48.81188" lon="-3.33565">
        <ele>66</ele>
        <time>2018-04-23T15:19:18+02:00</time>
      </trkpt>
      <trkpt lat="48.81177" lon="-3.33567">
        <ele>66</ele>
        <time>2018-04-23T15:19:28+02:00</time>
      </trkpt>
      <trkpt lat="48.81165" lon="-3.33567">
        <ele>67</ele>
        <time>2018-04-23T15:19:38+02:00</time>
      </trkpt>
      <trkpt lat="48.81153" lon="-3.3357">
        <ele>67</ele>
        <time>2018-04-23T15:19:48+02:00</time>
      </trkpt>
      <trkpt lat="48.81142" lon="-3.33573">
        <ele>67</ele>
        <time>2018-04-23T15:19:58+02:00</time>
      </trkpt>
      <trkpt lat="48.81132" lon="-3.3358">
        <ele>67</ele>
        <time>2018-04-23T15:20:08+02:00</time>
      </trkpt>
      <trkpt lat="48.81123" lon="-3.33589">
        <ele>67</ele>
        <time>2018-04-23T15:20:18+02:00</time>
      </trkpt>
      <trkpt lat="48.81112" lon="-3.33597">
        <ele>67</ele>
        <time>2018-04-23T15:20:28+02:00</time>
      </trkpt>
      <trkpt lat="48.81102" lon="-3.33607">
        <ele>67</ele>
        <time>2018-04-23T15:20:38+02:00</time>
      </trkpt>
      <trkpt lat="48.81092" lon="-3.33617">
        <ele>67</ele>
        <time>2018-04-23T15:20:48+02:00</time>
      </trkpt>
      <trkpt lat="48.81081" lon="-3.33627">
        <ele>67</ele>
        <time>2018-04-23T15:20:58+02:00</time>
      </trkpt>
      <trkpt lat="48.81072" lon="-3.33632">
        <ele>67</ele>
        <time>2018-04-23T15:21:08+02:00</time>
      </trkpt>
      <trkpt lat="48.81059" lon="-3.33637">
        <ele>67</ele>
        <time>2018-04-23T15:21:18+02:00</time>
      </trkpt>
      <trkpt lat="48.8105" lon="-3.33639">
        <ele>66</ele>
        <time>2018-04-23T15:21:28+02:00</time>
      </trkpt>
      <trkpt lat="48.8104" lon="-3.33644">
        <ele>66</ele>
        <time>2018-04-23T15:21:38+02:00</time>
      </trkpt>
      <trkpt lat="48.81029" lon="-3.33648">
        <ele>66</ele>
        <time>2018-04-23T15:21:48+02:00</time>
      </trkpt>
      <trkpt lat="48.81013" lon="-3.33649">
        <ele>66</ele>
        <time>2018-04-23T15:21:58+02:00</time>
      </trkpt>
      <trkpt lat="48.81003" lon="-3.33658">
        <ele>66</ele>
        <time>2018-04-23T15:22:08+02:00</time>
      </trkpt>
      <trkpt lat="48.80992" lon="-3.33664">
        <ele>66</ele>
        <time>2018-04-23T15:22:18+02:00</time>
      </trkpt>
      <trkpt lat="48.80982" lon="-3.33667">
        <ele>66</ele>
        <time>2018-04-23T15:22:28+02:00</time>
      </trkpt>
      <trkpt lat="48.80973" lon="-3.33671">
        <ele>65</ele>
        <time>2018-04-23T15:22:38+02:00</time>
      </trkpt>
      <trkpt lat="48.8096" lon="-3.33678">
        <ele>65</ele>
        <time>2018-04-23T15:22:48+02:00</time>
      </trkpt>
      <trkpt lat="48.8095" lon="-3.33684">
        <ele>65</ele>
        <time>2018-04-23T15:22:58+02:00</time>
      </trkpt>
      <trkpt lat="48.80938" lon="-3.33692">
        <ele>64</ele>
        <time>2018-04-23T15:23:08+02:00</time>
      </trkpt>
      <trkpt lat="48.80928" lon="-3.33696">
        <ele>64</ele>
        <time>2018-04-23T15:23:18+02:00</time>
      </trkpt>
      <trkpt lat="48.80914" lon="-3.33699">
        <ele>64</ele>
        <time>2018-04-23T15:23:28+02:00</time>
      </trkpt>
      <trkpt lat="48.80907" lon="-3.33697">
        <ele>64</ele>
        <time>2018-04-23T15:23:38+02:00</time>
      </trkpt>
      <trkpt lat="48.80894" lon="-3.33692">
        <ele>64</ele>
        <time>2018-04-23T15:23:48+02:00</time>
      </trkpt>
      <trkpt lat="48.80883" lon="-3.33685">
        <ele>64</ele>
        <time>2018-04-23T15:23:58+02:00</time>
      </trkpt>
      <trkpt lat="48.80868" lon="-3.33684">
        <ele>64</ele>
        <time>2018-04-23T15:24:08+02:00</time>
      </trkpt>
      <trkpt lat="48.80858" lon="-3.33682">
        <ele>64</ele>
        <time>2018-04-23T15:24:18+02:00</time>
      </trkpt>
      <trkpt lat="48.80847" lon="-3.33677">
        <ele>64</ele>
        <time>2018-04-23T15:24:28+02:00</time>
      </trkpt>
      <trkpt lat="48.80837" lon="-3.3367">
        <ele>64</ele>
        <time>2018-04-23T15:24:38+02:00</time>
      </trkpt>
      <trkpt lat="48.80829" lon="-3.33664">
        <ele>64</ele>
        <time>2018-04-23T15:24:48+02:00</time>
      </trkpt>
      <trkpt lat="48.8082" lon="-3.33657">
        <ele>64</ele>
        <time>2018-04-23T15:24:58+02:00</time>
      </trkpt>
      <trkpt lat="48.80808" lon="-3.33638">
        <ele>63</ele>
        <time>2018-04-23T15:25:08+02:00</time>
      </trkpt>
      <trkpt lat="48.80801" lon="-3.33622">
        <ele>63</ele>
        <time>2018-04-23T15:25:18+02:00</time>
      </trkpt>
      <trkpt lat="48.80797" lon="-3.33618">
        <ele>63</ele>
        <time>2018-04-23T15:25:28+02:00</time>
      </trkpt>
      <trkpt lat="48.80789" lon="-3.3362">
        <ele>63</ele>
        <time>2018-04-23T15:25:38+02:00</time>
      </trkpt>
      <trkpt lat="48.80785" lon="-3.33634">
        <ele>63</ele>
        <time>2018-04-23T15:25:48+02:00</time>
      </trkpt>
      <trkpt lat="48.80779" lon="-3.33644">
        <ele>63</ele>
        <time>2018-04-23T15:25:58+02:00</time>
      </trkpt>
      <trkpt lat="48.80779" lon="-3.33661">
        <ele>63</ele>
        <time>2018-04-23T15:26:08+02:00</time>
      </trkpt>
      <trkpt lat="48.80778" lon="-3.33677">
        <ele>62</ele>
        <time>2018-04-23T15:26:18+02:00</time>
      </trkpt>
      <trkpt lat="48.80776" lon="-3.33695">
        <ele>62</ele>
        <time>2018-04-23T15:26:28+02:00</time>
      </trkpt>
      <trkpt lat="48.8077" lon="-3.33711">
        <ele>62</ele>
        <time>2018-04-23T15:26:38+02:00</time>
      </trkpt>
      <trkpt lat="48.80764" lon="-3.33722">
        <ele>61</ele>
        <time>2018-04-23T15:26:48+02:00</time>
      </trkpt>
      <trkpt lat="48.80755" lon="-3.33731">
        <ele>61</ele>
        <time>2018-04-23T15:26:58+02:00</time>
      </trkpt>
      <trkpt lat="48.80745" lon="-3.33726">
        <ele>61</ele>
        <time>2018-04-23T15:27:08+02:00</time>
      </trkpt>
      <trkpt lat="48.80739" lon="-3.3373">
        <ele>60</ele>
        <time>2018-04-23T15:27:18+02:00</time>
      </trkpt>
      <trkpt lat="48.80726" lon="-3.33743">
        <ele>60</ele>
        <time>2018-04-23T15:27:28+02:00</time>
      </trkpt>
      <trkpt lat="48.80718" lon="-3.33752">
        <ele>60</ele>
        <time>2018-04-23T15:27:38+02:00</time>
      </trkpt>
      <trkpt lat="48.80711" lon="-3.33759">
        <ele>59</ele>
        <time>2018-04-23T15:27:48+02:00</time>
      </trkpt>
      <trkpt lat="48.80702" lon="-3.33766">
        <ele>58</ele>
        <time>2018-04-23T15:27:58+02:00</time>
      </trkpt>
      <trkpt lat="48.80692" lon="-3.33776">
        <ele>58</ele>
        <time>2018-04-23T15:28:08+02:00</time>
      </trkpt>
      <trkpt lat="48.80682" lon="-3.33783">
        <ele>57</ele>
        <time>2018-04-23T15:28:18+02:00</time>
      </trkpt>
      <trkpt lat="48.80679" lon="-3.33792">
        <ele>56</ele>
        <time>2018-04-23T15:28:28+02:00</time>
      </trkpt>
      <trkpt lat="48.80676" lon="-3.33807">
        <ele>55</ele>
        <time>2018-04-23T15:28:38+02:00</time>
      </trkpt>
      <trkpt lat="48.80669" lon="-3.33824">
        <ele>53</ele>
        <time>2018-04-23T15:28:48+02:00</time>
      </trkpt>
      <trkpt lat="48.80663" lon="-3.33837">
        <ele>52</ele>
        <time>2018-04-23T15:28:58+02:00</time>
      </trkpt>
      <trkpt lat="48.8066" lon="-3.33848">
        <ele>51</ele>
        <time>2018-04-23T15:29:08+02:00</time>
      </trkpt>
      <trkpt lat="48.80657" lon="-3.33851">
        <ele>51</ele>
        <time>2018-04-23T15:29:18+02:00</time>
      </trkpt>
      <trkpt lat="48.80652" lon="-3.33863">
        <ele>50</ele>
        <time>2018-04-23T15:29:28+02:00</time>
      </trkpt>
      <trkpt lat="48.80651" lon="-3.33875">
        <ele>49</ele>
        <time>2018-04-23T15:29:38+02:00</time>
      </trkpt>
      <trkpt lat="48.80643" lon="-3.33892">
        <ele>48</ele>
        <time>2018-04-23T15:29:48+02:00</time>
      </trkpt>
      <trkpt lat="48.80636" lon="-3.33903">
        <ele>47</ele>
        <time>2018-04-23T15:29:58+02:00</time>
      </trkpt>
      <trkpt lat="48.8063" lon="-3.33915">
        <ele>46</ele>
        <time>2018-04-23T15:30:08+02:00</time>
      </trkpt>
      <trkpt lat="48.80625" lon="-3.33928">
        <ele>45</ele>
        <time>2018-04-23T15:30:18+02:00</time>
      </trkpt>
      <trkpt lat="48.80616" lon="-3.3393">
        <ele>45</ele>
        <time>2018-04-23T15:30:28+02:00</time>
      </trkpt>
      <trkpt lat="48.80606" lon="-3.33926">
        <ele>45</ele>
        <time>2018-04-23T15:30:38+02:00</time>
      </trkpt>
      <trkpt lat="48.80597" lon="-3.33914">
        <ele>45</ele>
        <time>2018-04-23T15:30:48+02:00</time>
      </trkpt>
      <trkpt lat="48.80585" lon="-3.33904">
        <ele>45</ele>
        <time>2018-04-23T15:30:58+02:00</time>
      </trkpt>
      <trkpt lat="48.80577" lon="-3.33895">
        <ele>47</ele>
        <time>2018-04-23T15:31:08+02:00</time>
      </trkpt>
      <trkpt lat="48.8057" lon="-3.33888">
        <ele>48</ele>
        <time>2018-04-23T15:31:18+02:00</time>
      </trkpt>
      <trkpt lat="48.80564" lon="-3.33875">
        <ele>49</ele>
        <time>2018-04-23T15:31:28+02:00</time>
      </trkpt>
      <trkpt lat="48.80554" lon="-3.33866">
        <ele>50</ele>
        <time>2018-04-23T15:31:38+02:00</time>
      </trkpt>
      <trkpt lat="48.80546" lon="-3.33859">
        <ele>50</ele>
        <time>2018-04-23T15:31:48+02:00</time>
      </trkpt>
      <trkpt lat="48.80537" lon="-3.33849">
        <ele>50</ele>
        <time>2018-04-23T15:31:58+02:00</time>
      </trkpt>
      <trkpt lat="48.80524" lon="-3.33841">
        <ele>49</ele>
        <time>2018-04-23T15:32:08+02:00</time>
      </trkpt>
      <trkpt lat="48.80514" lon="-3.33833">
        <ele>48</ele>
        <time>2018-04-23T15:32:18+02:00</time>
      </trkpt>
      <trkpt lat="48.80503" lon="-3.33833">
        <ele>47</ele>
        <time>2018-04-23T15:32:28+02:00</time>
      </trkpt>
      <trkpt lat="48.80494" lon="-3.33823">
        <ele>48</ele>
        <time>2018-04-23T15:32:38+02:00</time>
      </trkpt>
      <trkpt lat="48.80483" lon="-3.33818">
        <ele>49</ele>
        <time>2018-04-23T15:32:48+02:00</time>
      </trkpt>
      <trkpt lat="48.80472" lon="-3.33811">
        <ele>49</ele>
        <time>2018-04-23T15:32:58+02:00</time>
      </trkpt>
      <trkpt lat="48.80467" lon="-3.33803">
        <ele>50</ele>
        <time>2018-04-23T15:33:08+02:00</time>
      </trkpt>
      <trkpt lat="48.80455" lon="-3.33801">
        <ele>50</ele>
        <time>2018-04-23T15:33:18+02:00</time>
      </trkpt>
      <trkpt lat="48.80444" lon="-3.33794">
        <ele>50</ele>
        <time>2018-04-23T15:33:28+02:00</time>
      </trkpt>
      <trkpt lat="48.80434" lon="-3.33787">
        <ele>50</ele>
        <time>2018-04-23T15:33:38+02:00</time>
      </trkpt>
      <trkpt lat="48.80422" lon="-3.33783">
        <ele>50</ele>
        <time>2018-04-23T15:33:48+02:00</time>
      </trkpt>
      <trkpt lat="48.80411" lon="-3.33779">
        <ele>50</ele>
        <time>2018-04-23T15:33:58+02:00</time>
      </trkpt>
      <trkpt lat="48.80399" lon="-3.33773">
        <ele>51</ele>
        <time>2018-04-23T15:34:08+02:00</time>
      </trkpt>
      <trkpt lat="48.80386" lon="-3.33766">
        <ele>51</ele>
        <time>2018-04-23T15:34:18+02:00</time>
      </trkpt>
      <trkpt lat="48.80375" lon="-3.33769">
        <ele>51</ele>
        <time>2018-04-23T15:34:28+02:00</time>
      </trkpt>
      <trkpt lat="48.80363" lon="-3.33765">
        <ele>51</ele>
        <time>2018-04-23T15:34:38+02:00</time>
      </trkpt>
      <trkpt lat="48.80355" lon="-3.33752">
        <ele>51</ele>
        <time>2018-04-23T15:34:48+02:00</time>
      </trkpt>
      <trkpt lat="48.80346" lon="-3.33741">
        <ele>52</ele>
        <time>2018-04-23T15:34:58+02:00</time>
      </trkpt>
      <trkpt lat="48.80337" lon="-3.33735">
        <ele>53</ele>
        <time>2018-04-23T15:35:08+02:00</time>
      </trkpt>
      <trkpt lat="48.80328" lon="-3.33724">
        <ele>54</ele>
        <time>2018-04-23T15:35:18+02:00</time>
      </trkpt>
      <trkpt lat="48.80324" lon="-3.33721">
        <ele>55</ele>
        <time>2018-04-23T15:35:28+02:00</time>
      </trkpt>
      <trkpt lat="48.8032" lon="-3.33732">
        <ele>54</ele>
        <time>2018-04-23T15:35:38+02:00</time>
      </trkpt>
      <trkpt lat="48.80309" lon="-3.33742">
        <ele>54</ele>
        <time>2018-04-23T15:35:48+02:00</time>
      </trkpt>
      <trkpt lat="48.80304" lon="-3.33743">
        <ele>55</ele>
        <time>2018-04-23T15:35:58+02:00</time>
      </trkpt>
      <trkpt lat="48.803" lon="-3.33747">
        <ele>55</ele>
        <time>2018-04-23T15:36:08+02:00</time>
      </trkpt>
      <trkpt lat="48.80296" lon="-3.33757">
        <ele>56</ele>
        <time>2018-04-23T15:36:18+02:00</time>
      </trkpt>
      <trkpt lat="48.80294" lon="-3.33764">
        <ele>57</ele>
        <time>2018-04-23T15:36:28+02:00</time>
      </trkpt>
      <trkpt lat="48.8029" lon="-3.33777">
        <ele>58</ele>
        <time>2018-04-23T15:36:38+02:00</time>
      </trkpt>
      <trkpt lat="48.80283" lon="-3.33791">
        <ele>61</ele>
        <time>2018-04-23T15:36:48+02:00</time>
      </trkpt>
      <trkpt lat="48.8028" lon="-3.33803">
        <ele>62</ele>
        <time>2018-04-23T15:36:58+02:00</time>
      </trkpt>
      <trkpt lat="48.80274" lon="-3.33807">
        <ele>64</ele>
        <time>2018-04-23T15:37:08+02:00</time>
      </trkpt>
      <trkpt lat="48.80269" lon="-3.33814">
        <ele>65</ele>
        <time>2018-04-23T15:37:18+02:00</time>
      </trkpt>
      <trkpt lat="48.80266" lon="-3.33826">
        <ele>67</ele>
        <time>2018-04-23T15:37:28+02:00</time>
      </trkpt>
      <trkpt lat="48.8026" lon="-3.33836">
        <ele>69</ele>
        <time>2018-04-23T15:37:38+02:00</time>
      </trkpt>
      <trkpt lat="48.80259" lon="-3.33851">
        <ele>68</ele>
        <time>2018-04-23T15:37:48+02:00</time>
      </trkpt>
      <trkpt lat="48.80253" lon="-3.33862">
        <ele>69</ele>
        <time>2018-04-23T15:37:58+02:00</time>
      </trkpt>
      <trkpt lat="48.80249" lon="-3.33877">
        <ele>68</ele>
        <time>2018-04-23T15:38:08+02:00</time>
      </trkpt>
      <trkpt lat="48.80244" lon="-3.33887">
        <ele>67</ele>
        <time>2018-04-23T15:38:18+02:00</time>
      </trkpt>
      <trkpt lat="48.80242" lon="-3.33904">
        <ele>66</ele>
        <time>2018-04-23T15:38:28+02:00</time>
      </trkpt>
      <trkpt lat="48.8024" lon="-3.33915">
        <ele>66</ele>
        <time>2018-04-23T15:38:38+02:00</time>
      </trkpt>
      <trkpt lat="48.80236" lon="-3.33928">
        <ele>66</ele>
        <time>2018-04-23T15:38:48+02:00</time>
      </trkpt>
      <trkpt lat="48.80232" lon="-3.33942">
        <ele>66</ele>
        <time>2018-04-23T15:38:58+02:00</time>
      </trkpt>
      <trkpt lat="48.80232" lon="-3.33956">
        <ele>65</ele>
        <time>2018-04-23T15:39:08+02:00</time>
      </trkpt>
      <trkpt lat="48.80228" lon="-3.33967">
        <ele>65</ele>
        <time>2018-04-23T15:39:18+02:00</time>
      </trkpt>
      <trkpt lat="48.80227" lon="-3.3398">
        <ele>65</ele>
        <time>2018-04-23T15:39:28+02:00</time>
      </trkpt>
      <trkpt lat="48.80226" lon="-3.33995">
        <ele>65</ele>
        <time>2018-04-23T15:39:38+02:00</time>
      </trkpt>
      <trkpt lat="48.80227" lon="-3.34008">
        <ele>65</ele>
        <time>2018-04-23T15:39:48+02:00</time>
      </trkpt>
      <trkpt lat="48.80222" lon="-3.34021">
        <ele>66</ele>
        <time>2018-04-23T15:39:58+02:00</time>
      </trkpt>
      <trkpt lat="48.80218" lon="-3.34037">
        <ele>67</ele>
        <time>2018-04-23T15:40:08+02:00</time>
      </trkpt>
      <trkpt lat="48.80212" lon="-3.34049">
        <ele>68</ele>
        <time>2018-04-23T15:40:18+02:00</time>
      </trkpt>
      <trkpt lat="48.80203" lon="-3.34055">
        <ele>69</ele>
        <time>2018-04-23T15:40:28+02:00</time>
      </trkpt>
      <trkpt lat="48.80194" lon="-3.34068">
        <ele>70</ele>
        <time>2018-04-23T15:40:38+02:00</time>
      </trkpt>
      <trkpt lat="48.8019" lon="-3.34074">
        <ele>70</ele>
        <time>2018-04-23T15:40:48+02:00</time>
      </trkpt>
      <trkpt lat="48.80184" lon="-3.34084">
        <ele>71</ele>
        <time>2018-04-23T15:40:58+02:00</time>
      </trkpt>
      <trkpt lat="48.80177" lon="-3.34094">
        <ele>71</ele>
        <time>2018-04-23T15:41:08+02:00</time>
      </trkpt>
      <trkpt lat="48.8017" lon="-3.34107">
        <ele>71</ele>
        <time>2018-04-23T15:41:18+02:00</time>
      </trkpt>
      <trkpt lat="48.80167" lon="-3.34121">
        <ele>72</ele>
        <time>2018-04-23T15:41:28+02:00</time>
      </trkpt>
      <trkpt lat="48.80169" lon="-3.34135">
        <ele>72</ele>
        <time>2018-04-23T15:41:38+02:00</time>
      </trkpt>
      <trkpt lat="48.80174" lon="-3.34147">
        <ele>72</ele>
        <time>2018-04-23T15:41:48+02:00</time>
      </trkpt>
      <trkpt lat="48.80181" lon="-3.34161">
        <ele>73</ele>
        <time>2018-04-23T15:41:58+02:00</time>
      </trkpt>
      <trkpt lat="48.8019" lon="-3.34178">
        <ele>73</ele>
        <time>2018-04-23T15:42:08+02:00</time>
      </trkpt>
      <trkpt lat="48.80194" lon="-3.3419">
        <ele>73</ele>
        <time>2018-04-23T15:42:18+02:00</time>
      </trkpt>
      <trkpt lat="48.80199" lon="-3.34203">
        <ele>73</ele>
        <time>2018-04-23T15:42:28+02:00</time>
      </trkpt>
      <trkpt lat="48.80207" lon="-3.34215">
        <ele>74</ele>
        <time>2018-04-23T15:42:38+02:00</time>
      </trkpt>
      <trkpt lat="48.80213" lon="-3.34226">
        <ele>74</ele>
        <time>2018-04-23T15:42:48+02:00</time>
      </trkpt>
      <trkpt lat="48.80219" lon="-3.34239">
        <ele>74</ele>
        <time>2018-04-23T15:42:58+02:00</time>
      </trkpt>
      <trkpt lat="48.80225" lon="-3.34248">
        <ele>75</ele>
        <time>2018-04-23T15:43:08+02:00</time>
      </trkpt>
      <trkpt lat="48.80233" lon="-3.34259">
        <ele>75</ele>
        <time>2018-04-23T15:43:18+02:00</time>
      </trkpt>
      <trkpt lat="48.80242" lon="-3.3427">
        <ele>75</ele>
        <time>2018-04-23T15:43:28+02:00</time>
      </trkpt>
      <trkpt lat="48.8025" lon="-3.34279">
        <ele>76</ele>
        <time>2018-04-23T15:43:38+02:00</time>
      </trkpt>
      <trkpt lat="48.80258" lon="-3.34289">
        <ele>76</ele>
        <time>2018-04-23T15:43:48+02:00</time>
      </trkpt>
      <trkpt lat="48.80263" lon="-3.34304">
        <ele>76</ele>
        <time>2018-04-23T15:43:58+02:00</time>
      </trkpt>
      <trkpt lat="48.80269" lon="-3.34313">
        <ele>76</ele>
        <time>2018-04-23T15:44:08+02:00</time>
      </trkpt>
      <trkpt lat="48.80279" lon="-3.34324">
        <ele>75</ele>
        <time>2018-04-23T15:44:18+02:00</time>
      </trkpt>
      <trkpt lat="48.80287" lon="-3.34333">
        <ele>75</ele>
        <time>2018-04-23T15:44:28+02:00</time>
      </trkpt>
      <trkpt lat="48.80297" lon="-3.34347">
        <ele>75</ele>
        <time>2018-04-23T15:44:38+02:00</time>
      </trkpt>
      <trkpt lat="48.80304" lon="-3.3436">
        <ele>75</ele>
        <time>2018-04-23T15:44:48+02:00</time>
      </trkpt>
      <trkpt lat="48.80313" lon="-3.34375">
        <ele>75</ele>
        <time>2018-04-23T15:44:58+02:00</time>
      </trkpt>
      <trkpt lat="48.80323" lon="-3.34377">
        <ele>74</ele>
        <time>2018-04-23T15:45:08+02:00</time>
      </trkpt>
      <trkpt lat="48.80331" lon="-3.3439">
        <ele>74</ele>
        <time>2018-04-23T15:45:18+02:00</time>
      </trkpt>
      <trkpt lat="48.80338" lon="-3.34398">
        <ele>74</ele>
        <time>2018-04-23T15:45:28+02:00</time>
      </trkpt>
      <trkpt lat="48.80347" lon="-3.3441">
        <ele>74</ele>
        <time>2018-04-23T15:45:38+02:00</time>
      </trkpt>
      <trkpt lat="48.80353" lon="-3.34422">
        <ele>74</ele>
        <time>2018-04-23T15:45:48+02:00</time>
      </trkpt>
      <trkpt lat="48.80358" lon="-3.34432">
        <ele>74</ele>
        <time>2018-04-23T15:45:58+02:00</time>
      </trkpt>
      <trkpt lat="48.80364" lon="-3.34439">
        <ele>73</ele>
        <time>2018-04-23T15:46:08+02:00</time>
      </trkpt>
      <trkpt lat="48.80364" lon="-3.34444">
        <ele>73</ele>
        <time>2018-04-23T15:46:18+02:00</time>
      </trkpt>
      <trkpt lat="48.80362" lon="-3.34457">
        <ele>73</ele>
        <time>2018-04-23T15:46:28+02:00</time>
      </trkpt>
      <trkpt lat="48.80356" lon="-3.34473">
        <ele>74</ele>
        <time>2018-04-23T15:46:38+02:00</time>
      </trkpt>
      <trkpt lat="48.80346" lon="-3.34487">
        <ele>74</ele>
        <time>2018-04-23T15:46:48+02:00</time>
      </trkpt>
      <trkpt lat="48.8034" lon="-3.345">
        <ele>75</ele>
        <time>2018-04-23T15:46:58+02:00</time>
      </trkpt>
      <trkpt lat="48.80336" lon="-3.34514">
        <ele>75</ele>
        <time>2018-04-23T15:47:08+02:00</time>
      </trkpt>
      <trkpt lat="48.80337" lon="-3.34532">
        <ele>74</ele>
        <time>2018-04-23T15:47:18+02:00</time>
      </trkpt>
      <trkpt lat="48.80345" lon="-3.34546">
        <ele>74</ele>
        <time>2018-04-23T15:47:28+02:00</time>
      </trkpt>
      <trkpt lat="48.80353" lon="-3.34552">
        <ele>73</ele>
        <time>2018-04-23T15:47:38+02:00</time>
      </trkpt>
      <trkpt lat="48.80356" lon="-3.34555">
        <ele>73</ele>
        <time>2018-04-23T15:47:48+02:00</time>
      </trkpt>
      <trkpt lat="48.80374" lon="-3.34568">
        <ele>72</ele>
        <time>2018-04-23T15:47:58+02:00</time>
      </trkpt>
      <trkpt lat="48.80385" lon="-3.34579">
        <ele>72</ele>
        <time>2018-04-23T15:48:08+02:00</time>
      </trkpt>
      <trkpt lat="48.80394" lon="-3.34586">
        <ele>71</ele>
        <time>2018-04-23T15:48:18+02:00</time>
      </trkpt>
      <trkpt lat="48.80407" lon="-3.34597">
        <ele>70</ele>
        <time>2018-04-23T15:48:28+02:00</time>
      </trkpt>
      <trkpt lat="48.80414" lon="-3.34605">
        <ele>70</ele>
        <time>2018-04-23T15:48:38+02:00</time>
      </trkpt>
      <trkpt lat="48.80424" lon="-3.34611">
        <ele>70</ele>
        <time>2018-04-23T15:48:48+02:00</time>
      </trkpt>
      <trkpt lat="48.80434" lon="-3.34621">
        <ele>70</ele>
        <time>2018-04-23T15:48:58+02:00</time>
      </trkpt>
      <trkpt lat="48.80444" lon="-3.34629">
        <ele>69</ele>
        <time>2018-04-23T15:49:08+02:00</time>
      </trkpt>
      <trkpt lat="48.80455" lon="-3.34636">
        <ele>69</ele>
        <time>2018-04-23T15:49:18+02:00</time>
      </trkpt>
      <trkpt lat="48.80466" lon="-3.34641">
        <ele>69</ele>
        <time>2018-04-23T15:49:28+02:00</time>
      </trkpt>
      <trkpt lat="48.80478" lon="-3.3465">
        <ele>69</ele>
        <time>2018-04-23T15:49:38+02:00</time>
      </trkpt>
      <trkpt lat="48.80488" lon="-3.34652">
        <ele>69</ele>
        <time>2018-04-23T15:49:48+02:00</time>
      </trkpt>
      <trkpt lat="48.80499" lon="-3.34659">
        <ele>69</ele>
        <time>2018-04-23T15:49:58+02:00</time>
      </trkpt>
      <trkpt lat="48.8051" lon="-3.34663">
        <ele>68</ele>
        <time>2018-04-23T15:50:08+02:00</time>
      </trkpt>
      <trkpt lat="48.80521" lon="-3.34669">
        <ele>68</ele>
        <time>2018-04-23T15:50:18+02:00</time>
      </trkpt>
      <trkpt lat="48.80532" lon="-3.34674">
        <ele>67</ele>
        <time>2018-04-23T15:50:28+02:00</time>
      </trkpt>
      <trkpt lat="48.80539" lon="-3.34681">
        <ele>67</ele>
        <time>2018-04-23T15:50:38+02:00</time>
      </trkpt>
      <trkpt lat="48.80549" lon="-3.3469">
        <ele>66</ele>
        <time>2018-04-23T15:50:48+02:00</time>
      </trkpt>
      <trkpt lat="48.80558" lon="-3.34698">
        <ele>66</ele>
        <time>2018-04-23T15:50:58+02:00</time>
      </trkpt>
      <trkpt lat="48.80567" lon="-3.3471">
        <ele>65</ele>
        <time>2018-04-23T15:51:08+02:00</time>
      </trkpt>
      <trkpt lat="48.80575" lon="-3.34718">
        <ele>65</ele>
        <time>2018-04-23T15:51:18+02:00</time>
      </trkpt>
      <trkpt lat="48.80586" lon="-3.34726">
        <ele>65</ele>
        <time>2018-04-23T15:51:28+02:00</time>
      </trkpt>
      <trkpt lat="48.80597" lon="-3.3473">
        <ele>64</ele>
        <time>2018-04-23T15:51:38+02:00</time>
      </trkpt>
      <trkpt lat="48.80602" lon="-3.34724">
        <ele>64</ele>
        <time>2018-04-23T15:51:48+02:00</time>
      </trkpt>
      <trkpt lat="48.80605" lon="-3.34712">
        <ele>64</ele>
        <time>2018-04-23T15:51:58+02:00</time>
      </trkpt>
      <trkpt lat="48.80608" lon="-3.34697">
        <ele>64</ele>
        <time>2018-04-23T15:52:08+02:00</time>
      </trkpt>
      <trkpt lat="48.80614" lon="-3.34685">
        <ele>63</ele>
        <time>2018-04-23T15:52:18+02:00</time>
      </trkpt>
      <trkpt lat="48.80621" lon="-3.34672">
        <ele>63</ele>
        <time>2018-04-23T15:52:28+02:00</time>
      </trkpt>
      <trkpt lat="48.80621" lon="-3.34663">
        <ele>63</ele>
        <time>2018-04-23T15:52:38+02:00</time>
      </trkpt>
      <trkpt lat="48.80629" lon="-3.34648">
        <ele>62</ele>
        <time>2018-04-23T15:52:48+02:00</time>
      </trkpt>
      <trkpt lat="48.80631" lon="-3.34636">
        <ele>61</ele>
        <time>2018-04-23T15:52:58+02:00</time>
      </trkpt>
      <trkpt lat="48.80635" lon="-3.34619">
        <ele>61</ele>
        <time>2018-04-23T15:53:08+02:00</time>
      </trkpt>
      <trkpt lat="48.80643" lon="-3.346">
        <ele>60</ele>
        <time>2018-04-23T15:53:18+02:00</time>
      </trkpt>
      <trkpt lat="48.80648" lon="-3.34584">
        <ele>59</ele>
        <time>2018-04-23T15:53:28+02:00</time>
      </trkpt>
      <trkpt lat="48.80653" lon="-3.34572">
        <ele>60</ele>
        <time>2018-04-23T15:53:38+02:00</time>
      </trkpt>
      <trkpt lat="48.80658" lon="-3.34557">
        <ele>60</ele>
        <time>2018-04-23T15:53:48+02:00</time>
      </trkpt>
      <trkpt lat="48.80663" lon="-3.34555">
        <ele>60</ele>
        <time>2018-04-23T15:53:58+02:00</time>
      </trkpt>
      <trkpt lat="48.80668" lon="-3.34535">
        <ele>60</ele>
        <time>2018-04-23T15:54:08+02:00</time>
      </trkpt>
      <trkpt lat="48.80673" lon="-3.34523">
        <ele>60</ele>
        <time>2018-04-23T15:54:18+02:00</time>
      </trkpt>
      <trkpt lat="48.80677" lon="-3.3451">
        <ele>61</ele>
        <time>2018-04-23T15:54:28+02:00</time>
      </trkpt>
      <trkpt lat="48.80681" lon="-3.34493">
        <ele>61</ele>
        <time>2018-04-23T15:54:38+02:00</time>
      </trkpt>
      <trkpt lat="48.80683" lon="-3.34484">
        <ele>60</ele>
        <time>2018-04-23T15:54:48+02:00</time>
      </trkpt>
      <trkpt lat="48.80683" lon="-3.34478">
        <ele>60</ele>
        <time>2018-04-23T15:54:58+02:00</time>
      </trkpt>
      <trkpt lat="48.80682" lon="-3.34473">
        <ele>60</ele>
        <time>2018-04-23T15:55:08+02:00</time>
      </trkpt>
      <trkpt lat="48.80684" lon="-3.34466">
        <ele>60</ele>
        <time>2018-04-23T15:55:18+02:00</time>
      </trkpt>
      <trkpt lat="48.80689" lon="-3.3446">
        <ele>60</ele>
        <time>2018-04-23T15:55:28+02:00</time>
      </trkpt>
      <trkpt lat="48.80696" lon="-3.34454">
        <ele>60</ele>
        <time>2018-04-23T15:55:38+02:00</time>
      </trkpt>
      <trkpt lat="48.80698" lon="-3.34452">
        <ele>60</ele>
        <time>2018-04-23T15:55:48+02:00</time>
      </trkpt>
      <trkpt lat="48.80699" lon="-3.3445">
        <ele>60</ele>
        <time>2018-04-23T15:55:58+02:00</time>
      </trkpt>
      <trkpt lat="48.807" lon="-3.3445">
        <ele>60</ele>
        <time>2018-04-23T15:56:08+02:00</time>
      </trkpt>
      <trkpt lat="48.80701" lon="-3.34451">
        <ele>60</ele>
        <time>2018-04-23T15:56:42+02:00</time>
      </trkpt>
      <trkpt lat="48.80702" lon="-3.3445">
        <ele>60</ele>
        <time>2018-04-23T15:56:52+02:00</time>
      </trkpt>
      <trkpt lat="48.80704" lon="-3.3445">
        <ele>60</ele>
        <time>2018-04-23T15:57:17+02:00</time>
      </trkpt>
      <trkpt lat="48.80712" lon="-3.34456">
        <ele>60</ele>
        <time>2018-04-23T15:57:27+02:00</time>
      </trkpt>
      <trkpt lat="48.80719" lon="-3.34454">
        <ele>60</ele>
        <time>2018-04-23T15:57:37+02:00</time>
      </trkpt>
      <trkpt lat="48.80728" lon="-3.34456">
        <ele>59</ele>
        <time>2018-04-23T15:57:47+02:00</time>
      </trkpt>
      <trkpt lat="48.80736" lon="-3.34454">
        <ele>59</ele>
        <time>2018-04-23T15:57:57+02:00</time>
      </trkpt>
      <trkpt lat="48.80745" lon="-3.34461">
        <ele>59</ele>
        <time>2018-04-23T15:58:07+02:00</time>
      </trkpt>
      <trkpt lat="48.80751" lon="-3.34464">
        <ele>59</ele>
        <time>2018-04-23T15:58:17+02:00</time>
      </trkpt>
      <trkpt lat="48.8076" lon="-3.34468">
        <ele>59</ele>
        <time>2018-04-23T15:58:27+02:00</time>
      </trkpt>
      <trkpt lat="48.80772" lon="-3.34471">
        <ele>59</ele>
        <time>2018-04-23T15:58:37+02:00</time>
      </trkpt>
      <trkpt lat="48.80785" lon="-3.34471">
        <ele>59</ele>
        <time>2018-04-23T15:58:47+02:00</time>
      </trkpt>
      <trkpt lat="48.80795" lon="-3.34471">
        <ele>59</ele>
        <time>2018-04-23T15:58:57+02:00</time>
      </trkpt>
      <trkpt lat="48.80809" lon="-3.34468">
        <ele>58</ele>
        <time>2018-04-23T15:59:07+02:00</time>
      </trkpt>
      <trkpt lat="48.80817" lon="-3.34471">
        <ele>58</ele>
        <time>2018-04-23T15:59:17+02:00</time>
      </trkpt>
      <trkpt lat="48.8083" lon="-3.34469">
        <ele>58</ele>
        <time>2018-04-23T15:59:27+02:00</time>
      </trkpt>
      <trkpt lat="48.80841" lon="-3.34473">
        <ele>57</ele>
        <time>2018-04-23T15:59:37+02:00</time>
      </trkpt>
      <trkpt lat="48.80857" lon="-3.34477">
        <ele>55</ele>
        <time>2018-04-23T15:59:47+02:00</time>
      </trkpt>
      <trkpt lat="48.80862" lon="-3.34477">
        <ele>54</ele>
        <time>2018-04-23T15:59:57+02:00</time>
      </trkpt>
      <trkpt lat="48.80867" lon="-3.34483">
        <ele>54</ele>
        <time>2018-04-23T16:00:07+02:00</time>
      </trkpt>
      <trkpt lat="48.80874" lon="-3.34486">
        <ele>53</ele>
        <time>2018-04-23T16:00:17+02:00</time>
      </trkpt>
      <trkpt lat="48.80885" lon="-3.34494">
        <ele>52</ele>
        <time>2018-04-23T16:00:27+02:00</time>
      </trkpt>
      <trkpt lat="48.80899" lon="-3.34501">
        <ele>50</ele>
        <time>2018-04-23T16:00:37+02:00</time>
      </trkpt>
      <trkpt lat="48.80905" lon="-3.34512">
        <ele>49</ele>
        <time>2018-04-23T16:00:47+02:00</time>
      </trkpt>
      <trkpt lat="48.8091" lon="-3.34521">
        <ele>49</ele>
        <time>2018-04-23T16:00:57+02:00</time>
      </trkpt>
      <trkpt lat="48.80915" lon="-3.34524">
        <ele>49</ele>
        <time>2018-04-23T16:01:07+02:00</time>
      </trkpt>
      <trkpt lat="48.80917" lon="-3.34535">
        <ele>49</ele>
        <time>2018-04-23T16:01:17+02:00</time>
      </trkpt>
      <trkpt lat="48.8093" lon="-3.34546">
        <ele>47</ele>
        <time>2018-04-23T16:01:27+02:00</time>
      </trkpt>
      <trkpt lat="48.8094" lon="-3.34555">
        <ele>45</ele>
        <time>2018-04-23T16:01:37+02:00</time>
      </trkpt>
      <trkpt lat="48.80948" lon="-3.34568">
        <ele>45</ele>
        <time>2018-04-23T16:01:47+02:00</time>
      </trkpt>
      <trkpt lat="48.80951" lon="-3.34577">
        <ele>45</ele>
        <time>2018-04-23T16:01:57+02:00</time>
      </trkpt>
      <trkpt lat="48.80962" lon="-3.34584">
        <ele>43</ele>
        <time>2018-04-23T16:02:07+02:00</time>
      </trkpt>
      <trkpt lat="48.80976" lon="-3.34583">
        <ele>41</ele>
        <time>2018-04-23T16:02:17+02:00</time>
      </trkpt>
      <trkpt lat="48.80988" lon="-3.34588">
        <ele>39</ele>
        <time>2018-04-23T16:02:27+02:00</time>
      </trkpt>
      <trkpt lat="48.80995" lon="-3.34594">
        <ele>38</ele>
        <time>2018-04-23T16:02:37+02:00</time>
      </trkpt>
      <trkpt lat="48.81001" lon="-3.34601">
        <ele>38</ele>
        <time>2018-04-23T16:02:47+02:00</time>
      </trkpt>
      <trkpt lat="48.81006" lon="-3.34609">
        <ele>38</ele>
        <time>2018-04-23T16:02:57+02:00</time>
      </trkpt>
      <trkpt lat="48.81012" lon="-3.34617">
        <ele>37</ele>
        <time>2018-04-23T16:03:07+02:00</time>
      </trkpt>
      <trkpt lat="48.81019" lon="-3.34623">
        <ele>37</ele>
        <time>2018-04-23T16:03:17+02:00</time>
      </trkpt>
      <trkpt lat="48.81033" lon="-3.34629">
        <ele>34</ele>
        <time>2018-04-23T16:03:27+02:00</time>
      </trkpt>
      <trkpt lat="48.81041" lon="-3.34631">
        <ele>33</ele>
        <time>2018-04-23T16:03:37+02:00</time>
      </trkpt>
      <trkpt lat="48.8104" lon="-3.34633">
        <ele>33</ele>
        <time>2018-04-23T16:03:47+02:00</time>
      </trkpt>
      <trkpt lat="48.81042" lon="-3.34635">
        <ele>33</ele>
        <time>2018-04-23T16:03:57+02:00</time>
      </trkpt>
      <trkpt lat="48.81043" lon="-3.34634">
        <ele>33</ele>
        <time>2018-04-23T16:04:07+02:00</time>
      </trkpt>
      <trkpt lat="48.81042" lon="-3.34635">
        <ele>33</ele>
        <time>2018-04-23T16:04:42+02:00</time>
      </trkpt>
      <trkpt lat="48.81043" lon="-3.34638">
        <ele>33</ele>
        <time>2018-04-23T16:04:53+02:00</time>
      </trkpt>
      <trkpt lat="48.81045" lon="-3.34653">
        <ele>33</ele>
        <time>2018-04-23T16:05:03+02:00</time>
      </trkpt>
      <trkpt lat="48.81048" lon="-3.34671">
        <ele>34</ele>
        <time>2018-04-23T16:05:13+02:00</time>
      </trkpt>
      <trkpt lat="48.81057" lon="-3.34684">
        <ele>33</ele>
        <time>2018-04-23T16:05:23+02:00</time>
      </trkpt>
      <trkpt lat="48.81062" lon="-3.34689">
        <ele>33</ele>
        <time>2018-04-23T16:05:33+02:00</time>
      </trkpt>
      <trkpt lat="48.81065" lon="-3.34697">
        <ele>33</ele>
        <time>2018-04-23T16:05:43+02:00</time>
      </trkpt>
      <trkpt lat="48.81074" lon="-3.34705">
        <ele>32</ele>
        <time>2018-04-23T16:05:53+02:00</time>
      </trkpt>
      <trkpt lat="48.8108" lon="-3.34718">
        <ele>32</ele>
        <time>2018-04-23T16:06:03+02:00</time>
      </trkpt>
      <trkpt lat="48.81089" lon="-3.34726">
        <ele>32</ele>
        <time>2018-04-23T16:06:13+02:00</time>
      </trkpt>
      <trkpt lat="48.81096" lon="-3.34737">
        <ele>32</ele>
        <time>2018-04-23T16:06:23+02:00</time>
      </trkpt>
      <trkpt lat="48.81103" lon="-3.3475">
        <ele>32</ele>
        <time>2018-04-23T16:06:33+02:00</time>
      </trkpt>
      <trkpt lat="48.81109" lon="-3.34755">
        <ele>31</ele>
        <time>2018-04-23T16:06:43+02:00</time>
      </trkpt>
      <trkpt lat="48.81117" lon="-3.34767">
        <ele>31</ele>
        <time>2018-04-23T16:06:53+02:00</time>
      </trkpt>
      <trkpt lat="48.81128" lon="-3.34779">
        <ele>31</ele>
        <time>2018-04-23T16:07:03+02:00</time>
      </trkpt>
      <trkpt lat="48.81139" lon="-3.34789">
        <ele>30</ele>
        <time>2018-04-23T16:07:13+02:00</time>
      </trkpt>
      <trkpt lat="48.8115" lon="-3.34799">
        <ele>30</ele>
        <time>2018-04-23T16:07:23+02:00</time>
      </trkpt>
      <trkpt lat="48.81161" lon="-3.34804">
        <ele>28</ele>
        <time>2018-04-23T16:07:33+02:00</time>
      </trkpt>
      <trkpt lat="48.81167" lon="-3.34811">
        <ele>28</ele>
        <time>2018-04-23T16:07:43+02:00</time>
      </trkpt>
      <trkpt lat="48.81173" lon="-3.34818">
        <ele>28</ele>
        <time>2018-04-23T16:07:53+02:00</time>
      </trkpt>
      <trkpt lat="48.81174" lon="-3.34819">
        <ele>28</ele>
        <time>2018-04-23T16:08:03+02:00</time>
      </trkpt>
      <trkpt lat="48.81175" lon="-3.3482">
        <ele>28</ele>
        <time>2018-04-23T16:08:32+02:00</time>
      </trkpt>
      <trkpt lat="48.81176" lon="-3.34822">
        <ele>28</ele>
        <time>2018-04-23T16:08:42+02:00</time>
      </trkpt>
      <trkpt lat="48.81176" lon="-3.34823">
        <ele>29</ele>
        <time>2018-04-23T16:09:19+02:00</time>
      </trkpt>
      <trkpt lat="48.81177" lon="-3.34833">
        <ele>30</ele>
        <time>2018-04-23T16:09:29+02:00</time>
      </trkpt>
      <trkpt lat="48.81181" lon="-3.34849">
        <ele>32</ele>
        <time>2018-04-23T16:09:39+02:00</time>
      </trkpt>
      <trkpt lat="48.81188" lon="-3.34857">
        <ele>31</ele>
        <time>2018-04-23T16:09:49+02:00</time>
      </trkpt>
      <trkpt lat="48.81195" lon="-3.34869">
        <ele>32</ele>
        <time>2018-04-23T16:09:59+02:00</time>
      </trkpt>
      <trkpt lat="48.81201" lon="-3.34881">
        <ele>32</ele>
        <time>2018-04-23T16:10:09+02:00</time>
      </trkpt>
      <trkpt lat="48.81209" lon="-3.34893">
        <ele>31</ele>
        <time>2018-04-23T16:10:19+02:00</time>
      </trkpt>
      <trkpt lat="48.81218" lon="-3.34904">
        <ele>30</ele>
        <time>2018-04-23T16:10:29+02:00</time>
      </trkpt>
      <trkpt lat="48.81224" lon="-3.34916">
        <ele>29</ele>
        <time>2018-04-23T16:10:39+02:00</time>
      </trkpt>
      <trkpt lat="48.81232" lon="-3.34928">
        <ele>29</ele>
        <time>2018-04-23T16:10:49+02:00</time>
      </trkpt>
      <trkpt lat="48.81238" lon="-3.34944">
        <ele>31</ele>
        <time>2018-04-23T16:10:59+02:00</time>
      </trkpt>
      <trkpt lat="48.81247" lon="-3.34954">
        <ele>31</ele>
        <time>2018-04-23T16:11:09+02:00</time>
      </trkpt>
      <trkpt lat="48.81255" lon="-3.34967">
        <ele>31</ele>
        <time>2018-04-23T16:11:19+02:00</time>
      </trkpt>
      <trkpt lat="48.81265" lon="-3.34976">
        <ele>31</ele>
        <time>2018-04-23T16:11:29+02:00</time>
      </trkpt>
      <trkpt lat="48.81276" lon="-3.34983">
        <ele>30</ele>
        <time>2018-04-23T16:11:39+02:00</time>
      </trkpt>
      <trkpt lat="48.81286" lon="-3.34992">
        <ele>28</ele>
        <time>2018-04-23T16:11:49+02:00</time>
      </trkpt>
      <trkpt lat="48.81296" lon="-3.35002">
        <ele>27</ele>
        <time>2018-04-23T16:11:59+02:00</time>
      </trkpt>
      <trkpt lat="48.81306" lon="-3.35016">
        <ele>27</ele>
        <time>2018-04-23T16:12:09+02:00</time>
      </trkpt>
      <trkpt lat="48.81314" lon="-3.3503">
        <ele>28</ele>
        <time>2018-04-23T16:12:19+02:00</time>
      </trkpt>
      <trkpt lat="48.81322" lon="-3.3504">
        <ele>29</ele>
        <time>2018-04-23T16:12:29+02:00</time>
      </trkpt>
      <trkpt lat="48.81334" lon="-3.35049">
        <ele>28</ele>
        <time>2018-04-23T16:12:39+02:00</time>
      </trkpt>
      <trkpt lat="48.81342" lon="-3.35057">
        <ele>29</ele>
        <time>2018-04-23T16:12:49+02:00</time>
      </trkpt>
      <trkpt lat="48.81355" lon="-3.35061">
        <ele>30</ele>
        <time>2018-04-23T16:12:59+02:00</time>
      </trkpt>
      <trkpt lat="48.81365" lon="-3.35064">
        <ele>30</ele>
        <time>2018-04-23T16:13:09+02:00</time>
      </trkpt>
      <trkpt lat="48.81373" lon="-3.35066">
        <ele>30</ele>
        <time>2018-04-23T16:13:19+02:00</time>
      </trkpt>
      <trkpt lat="48.81382" lon="-3.35077">
        <ele>32</ele>
        <time>2018-04-23T16:13:29+02:00</time>
      </trkpt>
      <trkpt lat="48.81385" lon="-3.35082">
        <ele>33</ele>
        <time>2018-04-23T16:13:39+02:00</time>
      </trkpt>
      <trkpt lat="48.81389" lon="-3.35081">
        <ele>33</ele>
        <time>2018-04-23T16:13:49+02:00</time>
      </trkpt>
      <trkpt lat="48.81398" lon="-3.35079">
        <ele>32</ele>
        <time>2018-04-23T16:13:59+02:00</time>
      </trkpt>
      <trkpt lat="48.81408" lon="-3.35083">
        <ele>32</ele>
        <time>2018-04-23T16:14:09+02:00</time>
      </trkpt>
      <trkpt lat="48.81419" lon="-3.35089">
        <ele>33</ele>
        <time>2018-04-23T16:14:19+02:00</time>
      </trkpt>
      <trkpt lat="48.8143" lon="-3.35097">
        <ele>33</ele>
        <time>2018-04-23T16:14:29+02:00</time>
      </trkpt>
      <trkpt lat="48.81444" lon="-3.35102">
        <ele>32</ele>
        <time>2018-04-23T16:14:39+02:00</time>
      </trkpt>
      <trkpt lat="48.81449" lon="-3.35101">
        <ele>30</ele>
        <time>2018-04-23T16:14:49+02:00</time>
      </trkpt>
      <trkpt lat="48.8146" lon="-3.3511">
        <ele>30</ele>
        <time>2018-04-23T16:14:59+02:00</time>
      </trkpt>
      <trkpt lat="48.81468" lon="-3.35117">
        <ele>31</ele>
        <time>2018-04-23T16:15:09+02:00</time>
      </trkpt>
      <trkpt lat="48.81482" lon="-3.35122">
        <ele>29</ele>
        <time>2018-04-23T16:15:19+02:00</time>
      </trkpt>
      <trkpt lat="48.81491" lon="-3.35127">
        <ele>29</ele>
        <time>2018-04-23T16:15:29+02:00</time>
      </trkpt>
      <trkpt lat="48.81507" lon="-3.35138">
        <ele>28</ele>
        <time>2018-04-23T16:15:39+02:00</time>
      </trkpt>
      <trkpt lat="48.8151" lon="-3.35147">
        <ele>30</ele>
        <time>2018-04-23T16:15:49+02:00</time>
      </trkpt>
      <trkpt lat="48.81512" lon="-3.35151">
        <ele>30</ele>
        <time>2018-04-23T16:15:59+02:00</time>
      </trkpt>
      <trkpt lat="48.81525" lon="-3.35156">
        <ele>27</ele>
        <time>2018-04-23T16:16:09+02:00</time>
      </trkpt>
      <trkpt lat="48.81536" lon="-3.3516">
        <ele>26</ele>
        <time>2018-04-23T16:16:19+02:00</time>
      </trkpt>
      <trkpt lat="48.81547" lon="-3.35164">
        <ele>23</ele>
        <time>2018-04-23T16:16:29+02:00</time>
      </trkpt>
      <trkpt lat="48.81554" lon="-3.35171">
        <ele>22</ele>
        <time>2018-04-23T16:16:39+02:00</time>
      </trkpt>
      <trkpt lat="48.81559" lon="-3.35186">
        <ele>24</ele>
        <time>2018-04-23T16:16:49+02:00</time>
      </trkpt>
      <trkpt lat="48.81559" lon="-3.35202">
        <ele>26</ele>
        <time>2018-04-23T16:16:59+02:00</time>
      </trkpt>
      <trkpt lat="48.81561" lon="-3.35218">
        <ele>28</ele>
        <time>2018-04-23T16:17:09+02:00</time>
      </trkpt>
      <trkpt lat="48.81563" lon="-3.35233">
        <ele>30</ele>
        <time>2018-04-23T16:17:19+02:00</time>
      </trkpt>
      <trkpt lat="48.8157" lon="-3.3525">
        <ele>31</ele>
        <time>2018-04-23T16:17:29+02:00</time>
      </trkpt>
      <trkpt lat="48.81577" lon="-3.35262">
        <ele>30</ele>
        <time>2018-04-23T16:17:39+02:00</time>
      </trkpt>
      <trkpt lat="48.8158" lon="-3.35275">
        <ele>31</ele>
        <time>2018-04-23T16:17:49+02:00</time>
      </trkpt>
      <trkpt lat="48.81586" lon="-3.3529">
        <ele>32</ele>
        <time>2018-04-23T16:17:59+02:00</time>
      </trkpt>
      <trkpt lat="48.81583" lon="-3.35304">
        <ele>34</ele>
        <time>2018-04-23T16:18:09+02:00</time>
      </trkpt>
      <trkpt lat="48.81587" lon="-3.35321">
        <ele>36</ele>
        <time>2018-04-23T16:18:19+02:00</time>
      </trkpt>
      <trkpt lat="48.81586" lon="-3.35331">
        <ele>37</ele>
        <time>2018-04-23T16:18:29+02:00</time>
      </trkpt>
      <trkpt lat="48.81593" lon="-3.35343">
        <ele>36</ele>
        <time>2018-04-23T16:18:39+02:00</time>
      </trkpt>
      <trkpt lat="48.816" lon="-3.35351">
        <ele>36</ele>
        <time>2018-04-23T16:18:49+02:00</time>
      </trkpt>
      <trkpt lat="48.81602" lon="-3.3536">
        <ele>36</ele>
        <time>2018-04-23T16:18:59+02:00</time>
      </trkpt>
      <trkpt lat="48.81606" lon="-3.3536">
        <ele>35</ele>
        <time>2018-04-23T16:19:09+02:00</time>
      </trkpt>
      <trkpt lat="48.8161" lon="-3.35362">
        <ele>35</ele>
        <time>2018-04-23T16:19:19+02:00</time>
      </trkpt>
      <trkpt lat="48.81621" lon="-3.35372">
        <ele>34</ele>
        <time>2018-04-23T16:19:29+02:00</time>
      </trkpt>
      <trkpt lat="48.8163" lon="-3.35372">
        <ele>32</ele>
        <time>2018-04-23T16:19:39+02:00</time>
      </trkpt>
      <trkpt lat="48.8164" lon="-3.35369">
        <ele>30</ele>
        <time>2018-04-23T16:19:49+02:00</time>
      </trkpt>
      <trkpt lat="48.8165" lon="-3.35366">
        <ele>28</ele>
        <time>2018-04-23T16:19:59+02:00</time>
      </trkpt>
      <trkpt lat="48.8166" lon="-3.35362">
        <ele>26</ele>
        <time>2018-04-23T16:20:09+02:00</time>
      </trkpt>
      <trkpt lat="48.81676" lon="-3.35354">
        <ele>22</ele>
        <time>2018-04-23T16:20:19+02:00</time>
      </trkpt>
      <trkpt lat="48.81685" lon="-3.35356">
        <ele>21</ele>
        <time>2018-04-23T16:20:29+02:00</time>
      </trkpt>
      <trkpt lat="48.81687" lon="-3.35357">
        <ele>20</ele>
        <time>2018-04-23T16:20:39+02:00</time>
      </trkpt>
      <trkpt lat="48.81688" lon="-3.35355">
        <ele>20</ele>
        <time>2018-04-23T16:20:49+02:00</time>
      </trkpt>
      <trkpt lat="48.81688" lon="-3.35353">
        <ele>20</ele>
        <time>2018-04-23T16:21:24+02:00</time>
      </trkpt>
      <trkpt lat="48.81693" lon="-3.35355">
        <ele>19</ele>
        <time>2018-04-23T16:21:34+02:00</time>
      </trkpt>
      <trkpt lat="48.81696" lon="-3.35356">
        <ele>19</ele>
        <time>2018-04-23T16:21:44+02:00</time>
      </trkpt>
      <trkpt lat="48.81697" lon="-3.35354">
        <ele>19</ele>
        <time>2018-04-23T16:21:54+02:00</time>
      </trkpt>
      <trkpt lat="48.81703" lon="-3.35362">
        <ele>19</ele>
        <time>2018-04-23T16:22:04+02:00</time>
      </trkpt>
      <trkpt lat="48.81706" lon="-3.35362">
        <ele>18</ele>
        <time>2018-04-23T16:22:14+02:00</time>
      </trkpt>
      <trkpt lat="48.81712" lon="-3.35366">
        <ele>18</ele>
        <time>2018-04-23T16:22:24+02:00</time>
      </trkpt>
      <trkpt lat="48.81713" lon="-3.35375">
        <ele>19</ele>
        <time>2018-04-23T16:22:34+02:00</time>
      </trkpt>
      <trkpt lat="48.8172" lon="-3.35384">
        <ele>19</ele>
        <time>2018-04-23T16:22:44+02:00</time>
      </trkpt>
      <trkpt lat="48.81725" lon="-3.35389">
        <ele>19</ele>
        <time>2018-04-23T16:22:54+02:00</time>
      </trkpt>
      <trkpt lat="48.81729" lon="-3.35395">
        <ele>18</ele>
        <time>2018-04-23T16:23:04+02:00</time>
      </trkpt>
      <trkpt lat="48.81729" lon="-3.35403">
        <ele>19</ele>
        <time>2018-04-23T16:23:14+02:00</time>
      </trkpt>
      <trkpt lat="48.81738" lon="-3.35422">
        <ele>20</ele>
        <time>2018-04-23T16:23:24+02:00</time>
      </trkpt>
      <trkpt lat="48.81742" lon="-3.35435">
        <ele>22</ele>
        <time>2018-04-23T16:23:34+02:00</time>
      </trkpt>
      <trkpt lat="48.81746" lon="-3.35442">
        <ele>22</ele>
        <time>2018-04-23T16:23:44+02:00</time>
      </trkpt>
      <trkpt lat="48.81757" lon="-3.35459">
        <ele>24</ele>
        <time>2018-04-23T16:23:54+02:00</time>
      </trkpt>
      <trkpt lat="48.81766" lon="-3.35472">
        <ele>25</ele>
        <time>2018-04-23T16:24:04+02:00</time>
      </trkpt>
      <trkpt lat="48.81774" lon="-3.35484">
        <ele>25</ele>
        <time>2018-04-23T16:24:14+02:00</time>
      </trkpt>
      <trkpt lat="48.81778" lon="-3.35494">
        <ele>26</ele>
        <time>2018-04-23T16:24:24+02:00</time>
      </trkpt>
      <trkpt lat="48.81781" lon="-3.35506">
        <ele>27</ele>
        <time>2018-04-23T16:24:34+02:00</time>
      </trkpt>
      <trkpt lat="48.8179" lon="-3.3552">
        <ele>25</ele>
        <time>2018-04-23T16:24:44+02:00</time>
      </trkpt>
      <trkpt lat="48.81789" lon="-3.35534">
        <ele>26</ele>
        <time>2018-04-23T16:24:54+02:00</time>
      </trkpt>
      <trkpt lat="48.81786" lon="-3.35543">
        <ele>28</ele>
        <time>2018-04-23T16:25:04+02:00</time>
      </trkpt>
      <trkpt lat="48.81784" lon="-3.35555">
        <ele>29</ele>
        <time>2018-04-23T16:25:14+02:00</time>
      </trkpt>
      <trkpt lat="48.8178" lon="-3.35569">
        <ele>30</ele>
        <time>2018-04-23T16:25:24+02:00</time>
      </trkpt>
      <trkpt lat="48.81777" lon="-3.35576">
        <ele>32</ele>
        <time>2018-04-23T16:25:34+02:00</time>
      </trkpt>
      <trkpt lat="48.81776" lon="-3.35586">
        <ele>32</ele>
        <time>2018-04-23T16:25:44+02:00</time>
      </trkpt>
      <trkpt lat="48.81772" lon="-3.35596">
        <ele>33</ele>
        <time>2018-04-23T16:25:54+02:00</time>
      </trkpt>
      <trkpt lat="48.81766" lon="-3.35599">
        <ele>35</ele>
        <time>2018-04-23T16:26:04+02:00</time>
      </trkpt>
      <trkpt lat="48.81761" lon="-3.35604">
        <ele>36</ele>
        <time>2018-04-23T16:26:14+02:00</time>
      </trkpt>
      <trkpt lat="48.81752" lon="-3.35611">
        <ele>38</ele>
        <time>2018-04-23T16:26:24+02:00</time>
      </trkpt>
      <trkpt lat="48.81749" lon="-3.3562">
        <ele>39</ele>
        <time>2018-04-23T16:26:34+02:00</time>
      </trkpt>
      <trkpt lat="48.81748" lon="-3.35631">
        <ele>39</ele>
        <time>2018-04-23T16:26:44+02:00</time>
      </trkpt>
      <trkpt lat="48.81747" lon="-3.35645">
        <ele>39</ele>
        <time>2018-04-23T16:26:54+02:00</time>
      </trkpt>
      <trkpt lat="48.81746" lon="-3.3566">
        <ele>39</ele>
        <time>2018-04-23T16:27:04+02:00</time>
      </trkpt>
      <trkpt lat="48.81749" lon="-3.35676">
        <ele>40</ele>
        <time>2018-04-23T16:27:14+02:00</time>
      </trkpt>
      <trkpt lat="48.81747" lon="-3.35689">
        <ele>40</ele>
        <time>2018-04-23T16:27:24+02:00</time>
      </trkpt>
      <trkpt lat="48.8175" lon="-3.35705">
        <ele>40</ele>
        <time>2018-04-23T16:27:34+02:00</time>
      </trkpt>
      <trkpt lat="48.81751" lon="-3.35721">
        <ele>41</ele>
        <time>2018-04-23T16:27:44+02:00</time>
      </trkpt>
      <trkpt lat="48.81751" lon="-3.35735">
        <ele>41</ele>
        <time>2018-04-23T16:27:54+02:00</time>
      </trkpt>
      <trkpt lat="48.81753" lon="-3.35749">
        <ele>41</ele>
        <time>2018-04-23T16:28:04+02:00</time>
      </trkpt>
      <trkpt lat="48.81752" lon="-3.35763">
        <ele>42</ele>
        <time>2018-04-23T16:28:14+02:00</time>
      </trkpt>
      <trkpt lat="48.81756" lon="-3.35777">
        <ele>42</ele>
        <time>2018-04-23T16:28:24+02:00</time>
      </trkpt>
      <trkpt lat="48.81753" lon="-3.35791">
        <ele>43</ele>
        <time>2018-04-23T16:28:34+02:00</time>
      </trkpt>
      <trkpt lat="48.81747" lon="-3.35804">
        <ele>44</ele>
        <time>2018-04-23T16:28:44+02:00</time>
      </trkpt>
      <trkpt lat="48.81735" lon="-3.35809">
        <ele>45</ele>
        <time>2018-04-23T16:28:54+02:00</time>
      </trkpt>
      <trkpt lat="48.81729" lon="-3.35819">
        <ele>46</ele>
        <time>2018-04-23T16:29:04+02:00</time>
      </trkpt>
      <trkpt lat="48.81719" lon="-3.35824">
        <ele>46</ele>
        <time>2018-04-23T16:29:14+02:00</time>
      </trkpt>
      <trkpt lat="48.81708" lon="-3.3583">
        <ele>47</ele>
        <time>2018-04-23T16:29:24+02:00</time>
      </trkpt>
      <trkpt lat="48.81703" lon="-3.35839">
        <ele>47</ele>
        <time>2018-04-23T16:29:34+02:00</time>
      </trkpt>
      <trkpt lat="48.8169" lon="-3.35838">
        <ele>48</ele>
        <time>2018-04-23T16:29:44+02:00</time>
      </trkpt>
      <trkpt lat="48.81683" lon="-3.3584">
        <ele>48</ele>
        <time>2018-04-23T16:29:54+02:00</time>
      </trkpt>
      <trkpt lat="48.81683" lon="-3.35841">
        <ele>48</ele>
        <time>2018-04-23T16:30:05+02:00</time>
      </trkpt>
      <trkpt lat="48.81678" lon="-3.35845">
        <ele>48</ele>
        <time>2018-04-23T16:30:15+02:00</time>
      </trkpt>
      <trkpt lat="48.81677" lon="-3.35865">
        <ele>49</ele>
        <time>2018-04-23T16:30:25+02:00</time>
      </trkpt>
      <trkpt lat="48.81682" lon="-3.35883">
        <ele>48</ele>
        <time>2018-04-23T16:30:35+02:00</time>
      </trkpt>
      <trkpt lat="48.81689" lon="-3.35905">
        <ele>48</ele>
        <time>2018-04-23T16:30:45+02:00</time>
      </trkpt>
      <trkpt lat="48.8169" lon="-3.3592">
        <ele>48</ele>
        <time>2018-04-23T16:30:55+02:00</time>
      </trkpt>
      <trkpt lat="48.8169" lon="-3.35934">
        <ele>48</ele>
        <time>2018-04-23T16:31:05+02:00</time>
      </trkpt>
      <trkpt lat="48.81692" lon="-3.35949">
        <ele>48</ele>
        <time>2018-04-23T16:31:15+02:00</time>
      </trkpt>
      <trkpt lat="48.81695" lon="-3.35969">
        <ele>48</ele>
        <time>2018-04-23T16:31:25+02:00</time>
      </trkpt>
      <trkpt lat="48.81696" lon="-3.35981">
        <ele>48</ele>
        <time>2018-04-23T16:31:35+02:00</time>
      </trkpt>
      <trkpt lat="48.81698" lon="-3.35999">
        <ele>49</ele>
        <time>2018-04-23T16:31:45+02:00</time>
      </trkpt>
      <trkpt lat="48.81702" lon="-3.3602">
        <ele>48</ele>
        <time>2018-04-23T16:31:55+02:00</time>
      </trkpt>
      <trkpt lat="48.81706" lon="-3.36035">
        <ele>47</ele>
        <time>2018-04-23T16:32:05+02:00</time>
      </trkpt>
      <trkpt lat="48.8171" lon="-3.36052">
        <ele>47</ele>
        <time>2018-04-23T16:32:15+02:00</time>
      </trkpt>
      <trkpt lat="48.81717" lon="-3.36066">
        <ele>46</ele>
        <time>2018-04-23T16:32:25+02:00</time>
      </trkpt>
      <trkpt lat="48.81722" lon="-3.36082">
        <ele>46</ele>
        <time>2018-04-23T16:32:35+02:00</time>
      </trkpt>
      <trkpt lat="48.81724" lon="-3.36098">
        <ele>45</ele>
        <time>2018-04-23T16:32:45+02:00</time>
      </trkpt>
      <trkpt lat="48.8173" lon="-3.36114">
        <ele>44</ele>
        <time>2018-04-23T16:32:55+02:00</time>
      </trkpt>
      <trkpt lat="48.81736" lon="-3.36127">
        <ele>43</ele>
        <time>2018-04-23T16:33:05+02:00</time>
      </trkpt>
      <trkpt lat="48.81742" lon="-3.36146">
        <ele>42</ele>
        <time>2018-04-23T16:33:15+02:00</time>
      </trkpt>
      <trkpt lat="48.81745" lon="-3.36161">
        <ele>41</ele>
        <time>2018-04-23T16:33:25+02:00</time>
      </trkpt>
      <trkpt lat="48.81746" lon="-3.36177">
        <ele>41</ele>
        <time>2018-04-23T16:33:35+02:00</time>
      </trkpt>
      <trkpt lat="48.81752" lon="-3.36191">
        <ele>40</ele>
        <time>2018-04-23T16:33:45+02:00</time>
      </trkpt>
      <trkpt lat="48.81759" lon="-3.36206">
        <ele>38</ele>
        <time>2018-04-23T16:33:55+02:00</time>
      </trkpt>
      <trkpt lat="48.81759" lon="-3.36224">
        <ele>37</ele>
        <time>2018-04-23T16:34:05+02:00</time>
      </trkpt>
      <trkpt lat="48.8176" lon="-3.36244">
        <ele>36</ele>
        <time>2018-04-23T16:34:15+02:00</time>
      </trkpt>
      <trkpt lat="48.81767" lon="-3.36251">
        <ele>35</ele>
        <time>2018-04-23T16:34:25+02:00</time>
      </trkpt>
      <trkpt lat="48.81771" lon="-3.36248">
        <ele>35</ele>
        <time>2018-04-23T16:34:35+02:00</time>
      </trkpt>
      <trkpt lat="48.81788" lon="-3.36243">
        <ele>33</ele>
        <time>2018-04-23T16:34:45+02:00</time>
      </trkpt>
      <trkpt lat="48.81799" lon="-3.36245">
        <ele>31</ele>
        <time>2018-04-23T16:34:55+02:00</time>
      </trkpt>
      <trkpt lat="48.81811" lon="-3.36246">
        <ele>30</ele>
        <time>2018-04-23T16:35:05+02:00</time>
      </trkpt>
      <trkpt lat="48.81812" lon="-3.36245">
        <ele>30</ele>
        <time>2018-04-23T16:35:15+02:00</time>
      </trkpt>
      <trkpt lat="48.81829" lon="-3.36245">
        <ele>28</ele>
        <time>2018-04-23T16:35:25+02:00</time>
      </trkpt>
      <trkpt lat="48.81841" lon="-3.36252">
        <ele>26</ele>
        <time>2018-04-23T16:35:35+02:00</time>
      </trkpt>
      <trkpt lat="48.8185" lon="-3.36269">
        <ele>24</ele>
        <time>2018-04-23T16:35:45+02:00</time>
      </trkpt>
      <trkpt lat="48.81854" lon="-3.36285">
        <ele>23</ele>
        <time>2018-04-23T16:35:55+02:00</time>
      </trkpt>
      <trkpt lat="48.81857" lon="-3.36301">
        <ele>21</ele>
        <time>2018-04-23T16:36:05+02:00</time>
      </trkpt>
      <trkpt lat="48.81853" lon="-3.36316">
        <ele>22</ele>
        <time>2018-04-23T16:36:15+02:00</time>
      </trkpt>
      <trkpt lat="48.81851" lon="-3.36336">
        <ele>21</ele>
        <time>2018-04-23T16:36:25+02:00</time>
      </trkpt>
      <trkpt lat="48.81852" lon="-3.36355">
        <ele>19</ele>
        <time>2018-04-23T16:36:35+02:00</time>
      </trkpt>
      <trkpt lat="48.81851" lon="-3.36371">
        <ele>18</ele>
        <time>2018-04-23T16:36:45+02:00</time>
      </trkpt>
      <trkpt lat="48.81844" lon="-3.36386">
        <ele>18</ele>
        <time>2018-04-23T16:36:55+02:00</time>
      </trkpt>
      <trkpt lat="48.81839" lon="-3.36399">
        <ele>18</ele>
        <time>2018-04-23T16:37:05+02:00</time>
      </trkpt>
      <trkpt lat="48.81832" lon="-3.36414">
        <ele>17</ele>
        <time>2018-04-23T16:37:15+02:00</time>
      </trkpt>
      <trkpt lat="48.81823" lon="-3.36429">
        <ele>17</ele>
        <time>2018-04-23T16:37:25+02:00</time>
      </trkpt>
      <trkpt lat="48.81816" lon="-3.36444">
        <ele>17</ele>
        <time>2018-04-23T16:37:35+02:00</time>
      </trkpt>
      <trkpt lat="48.8181" lon="-3.36457">
        <ele>17</ele>
        <time>2018-04-23T16:37:45+02:00</time>
      </trkpt>
      <trkpt lat="48.81806" lon="-3.36473">
        <ele>16</ele>
        <time>2018-04-23T16:37:55+02:00</time>
      </trkpt>
      <trkpt lat="48.81805" lon="-3.3649">
        <ele>15</ele>
        <time>2018-04-23T16:38:05+02:00</time>
      </trkpt>
      <trkpt lat="48.81809" lon="-3.36506">
        <ele>13</ele>
        <time>2018-04-23T16:38:15+02:00</time>
      </trkpt>
      <trkpt lat="48.81814" lon="-3.3652">
        <ele>12</ele>
        <time>2018-04-23T16:38:25+02:00</time>
      </trkpt>
      <trkpt lat="48.81827" lon="-3.36533">
        <ele>10</ele>
        <time>2018-04-23T16:38:35+02:00</time>
      </trkpt>
      <trkpt lat="48.81832" lon="-3.36545">
        <ele>9</ele>
        <time>2018-04-23T16:38:45+02:00</time>
      </trkpt>
      <trkpt lat="48.81839" lon="-3.36555">
        <ele>8</ele>
        <time>2018-04-23T16:38:55+02:00</time>
      </trkpt>
      <trkpt lat="48.81848" lon="-3.36566">
        <ele>7</ele>
        <time>2018-04-23T16:39:05+02:00</time>
      </trkpt>
      <trkpt lat="48.81854" lon="-3.36575">
        <ele>6</ele>
        <time>2018-04-23T16:39:15+02:00</time>
      </trkpt>
      <trkpt lat="48.81858" lon="-3.36573">
        <ele>6</ele>
        <time>2018-04-23T16:39:25+02:00</time>
      </trkpt>
      <trkpt lat="48.81858" lon="-3.36572">
        <ele>6</ele>
        <time>2018-04-23T16:39:35+02:00</time>
      </trkpt>
      <trkpt lat="48.81858" lon="-3.36574">
        <ele>6</ele>
        <time>2018-04-23T16:39:50+02:00</time>
      </trkpt>
      <trkpt lat="48.81859" lon="-3.36574">
        <ele>6</ele>
        <time>2018-04-23T16:40:00+02:00</time>
      </trkpt>
      <trkpt lat="48.81859" lon="-3.36573">
        <ele>6</ele>
        <time>2018-04-23T16:40:10+02:00</time>
      </trkpt>
      <trkpt lat="48.81864" lon="-3.36568">
        <ele>5</ele>
        <time>2018-04-23T16:40:20+02:00</time>
      </trkpt>
      <trkpt lat="48.81875" lon="-3.36557">
        <ele>5</ele>
        <time>2018-04-23T16:40:30+02:00</time>
      </trkpt>
      <trkpt lat="48.81881" lon="-3.36545">
        <ele>4</ele>
        <time>2018-04-23T16:40:40+02:00</time>
      </trkpt>
      <trkpt lat="48.81886" lon="-3.36531">
        <ele>4</ele>
        <time>2018-04-23T16:40:50+02:00</time>
      </trkpt>
      <trkpt lat="48.81895" lon="-3.36517">
        <ele>4</ele>
        <time>2018-04-23T16:41:00+02:00</time>
      </trkpt>
      <trkpt lat="48.81902" lon="-3.36505">
        <ele>4</ele>
        <time>2018-04-23T16:41:10+02:00</time>
      </trkpt>
      <trkpt lat="48.81908" lon="-3.36492">
        <ele>4</ele>
        <time>2018-04-23T16:41:20+02:00</time>
      </trkpt>
      <trkpt lat="48.81917" lon="-3.36485">
        <ele>4</ele>
        <time>2018-04-23T16:41:30+02:00</time>
      </trkpt>
      <trkpt lat="48.81925" lon="-3.36477">
        <ele>4</ele>
        <time>2018-04-23T16:41:40+02:00</time>
      </trkpt>
      <trkpt lat="48.81937" lon="-3.36469">
        <ele>4</ele>
        <time>2018-04-23T16:41:50+02:00</time>
      </trkpt>
      <trkpt lat="48.81947" lon="-3.36459">
        <ele>4</ele>
        <time>2018-04-23T16:42:00+02:00</time>
      </trkpt>
      <trkpt lat="48.81956" lon="-3.36451">
        <ele>4</ele>
        <time>2018-04-23T16:42:10+02:00</time>
      </trkpt>
      <trkpt lat="48.81967" lon="-3.36445">
        <ele>4</ele>
        <time>2018-04-23T16:42:20+02:00</time>
      </trkpt>
      <trkpt lat="48.81976" lon="-3.36439">
        <ele>4</ele>
        <time>2018-04-23T16:42:30+02:00</time>
      </trkpt>
      <trkpt lat="48.81982" lon="-3.36433">
        <ele>4</ele>
        <time>2018-04-23T16:42:40+02:00</time>
      </trkpt>
      <trkpt lat="48.81991" lon="-3.36431">
        <ele>4</ele>
        <time>2018-04-23T16:42:50+02:00</time>
      </trkpt>
      <trkpt lat="48.82003" lon="-3.36425">
        <ele>4</ele>
        <time>2018-04-23T16:43:00+02:00</time>
      </trkpt>
      <trkpt lat="48.82016" lon="-3.36426">
        <ele>4</ele>
        <time>2018-04-23T16:43:10+02:00</time>
      </trkpt>
      <trkpt lat="48.82027" lon="-3.36422">
        <ele>4</ele>
        <time>2018-04-23T16:43:20+02:00</time>
      </trkpt>
      <trkpt lat="48.8204" lon="-3.36421">
        <ele>4</ele>
        <time>2018-04-23T16:43:30+02:00</time>
      </trkpt>
      <trkpt lat="48.82057" lon="-3.36419">
        <ele>4</ele>
        <time>2018-04-23T16:43:40+02:00</time>
      </trkpt>
      <trkpt lat="48.82062" lon="-3.36418">
        <ele>4</ele>
        <time>2018-04-23T16:43:50+02:00</time>
      </trkpt>
      <trkpt lat="48.82073" lon="-3.36419">
        <ele>4</ele>
        <time>2018-04-23T16:44:00+02:00</time>
      </trkpt>
      <trkpt lat="48.82082" lon="-3.36421">
        <ele>4</ele>
        <time>2018-04-23T16:44:10+02:00</time>
      </trkpt>
      <trkpt lat="48.82089" lon="-3.36416">
        <ele>4</ele>
        <time>2018-04-23T16:44:20+02:00</time>
      </trkpt>
      <trkpt lat="48.82095" lon="-3.36402">
        <ele>4</ele>
        <time>2018-04-23T16:44:30+02:00</time>
      </trkpt>
      <trkpt lat="48.82101" lon="-3.36388">
        <ele>4</ele>
        <time>2018-04-23T16:44:40+02:00</time>
      </trkpt>
      <trkpt lat="48.82108" lon="-3.36374">
        <ele>4</ele>
        <time>2018-04-23T16:44:50+02:00</time>
      </trkpt>
      <trkpt lat="48.82114" lon="-3.36361">
        <ele>4</ele>
        <time>2018-04-23T16:45:00+02:00</time>
      </trkpt>
      <trkpt lat="48.8212" lon="-3.36348">
        <ele>3</ele>
        <time>2018-04-23T16:45:10+02:00</time>
      </trkpt>
      <trkpt lat="48.82124" lon="-3.36333">
        <ele>3</ele>
        <time>2018-04-23T16:45:20+02:00</time>
      </trkpt>
      <trkpt lat="48.82128" lon="-3.36319">
        <ele>3</ele>
        <time>2018-04-23T16:45:30+02:00</time>
      </trkpt>
      <trkpt lat="48.82132" lon="-3.36307">
        <ele>3</ele>
        <time>2018-04-23T16:45:40+02:00</time>
      </trkpt>
      <trkpt lat="48.82131" lon="-3.36292">
        <ele>3</ele>
        <time>2018-04-23T16:45:50+02:00</time>
      </trkpt>
      <trkpt lat="48.82126" lon="-3.36278">
        <ele>4</ele>
        <time>2018-04-23T16:46:00+02:00</time>
      </trkpt>
      <trkpt lat="48.8212" lon="-3.36267">
        <ele>5</ele>
        <time>2018-04-23T16:46:10+02:00</time>
      </trkpt>
      <trkpt lat="48.82112" lon="-3.36254">
        <ele>6</ele>
        <time>2018-04-23T16:46:20+02:00</time>
      </trkpt>
      <trkpt lat="48.82105" lon="-3.3624">
        <ele>7</ele>
        <time>2018-04-23T16:46:30+02:00</time>
      </trkpt>
      <trkpt lat="48.82099" lon="-3.36229">
        <ele>8</ele>
        <time>2018-04-23T16:46:40+02:00</time>
      </trkpt>
      <trkpt lat="48.82092" lon="-3.36215">
        <ele>9</ele>
        <time>2018-04-23T16:46:50+02:00</time>
      </trkpt>
      <trkpt lat="48.82092" lon="-3.36204">
        <ele>9</ele>
        <time>2018-04-23T16:47:00+02:00</time>
      </trkpt>
      <trkpt lat="48.82093" lon="-3.36203">
        <ele>9</ele>
        <time>2018-04-23T16:47:10+02:00</time>
      </trkpt>
      <trkpt lat="48.82091" lon="-3.36203">
        <ele>9</ele>
        <time>2018-04-23T16:47:31+02:00</time>
      </trkpt>
      <trkpt lat="48.8209" lon="-3.36206">
        <ele>9</ele>
        <time>2018-04-23T16:47:41+02:00</time>
      </trkpt>
      <trkpt lat="48.82085" lon="-3.36208">
        <ele>10</ele>
        <time>2018-04-23T16:47:51+02:00</time>
      </trkpt>
      <trkpt lat="48.82083" lon="-3.36204">
        <ele>10</ele>
        <time>2018-04-23T16:48:01+02:00</time>
      </trkpt>
      <trkpt lat="48.82077" lon="-3.36191">
        <ele>11</ele>
        <time>2018-04-23T16:48:11+02:00</time>
      </trkpt>
      <trkpt lat="48.82072" lon="-3.3618">
        <ele>11</ele>
        <time>2018-04-23T16:48:21+02:00</time>
      </trkpt>
      <trkpt lat="48.82067" lon="-3.36162">
        <ele>12</ele>
        <time>2018-04-23T16:48:31+02:00</time>
      </trkpt>
      <trkpt lat="48.82067" lon="-3.36143">
        <ele>13</ele>
        <time>2018-04-23T16:48:41+02:00</time>
      </trkpt>
      <trkpt lat="48.82065" lon="-3.36126">
        <ele>14</ele>
        <time>2018-04-23T16:48:51+02:00</time>
      </trkpt>
      <trkpt lat="48.82064" lon="-3.3611">
        <ele>14</ele>
        <time>2018-04-23T16:49:01+02:00</time>
      </trkpt>
      <trkpt lat="48.82066" lon="-3.36093">
        <ele>15</ele>
        <time>2018-04-23T16:49:11+02:00</time>
      </trkpt>
      <trkpt lat="48.82065" lon="-3.36077">
        <ele>16</ele>
        <time>2018-04-23T16:49:21+02:00</time>
      </trkpt>
      <trkpt lat="48.82063" lon="-3.36064">
        <ele>17</ele>
        <time>2018-04-23T16:49:31+02:00</time>
      </trkpt>
      <trkpt lat="48.82065" lon="-3.36049">
        <ele>17</ele>
        <time>2018-04-23T16:49:41+02:00</time>
      </trkpt>
      <trkpt lat="48.82066" lon="-3.36034">
        <ele>18</ele>
        <time>2018-04-23T16:49:51+02:00</time>
      </trkpt>
      <trkpt lat="48.82072" lon="-3.36016">
        <ele>18</ele>
        <time>2018-04-23T16:50:01+02:00</time>
      </trkpt>
      <trkpt lat="48.82065" lon="-3.35996">
        <ele>20</ele>
        <time>2018-04-23T16:50:11+02:00</time>
      </trkpt>
      <trkpt lat="48.82064" lon="-3.35979">
        <ele>19</ele>
        <time>2018-04-23T16:50:21+02:00</time>
      </trkpt>
      <trkpt lat="48.82061" lon="-3.35961">
        <ele>18</ele>
        <time>2018-04-23T16:50:31+02:00</time>
      </trkpt>
      <trkpt lat="48.82057" lon="-3.35947">
        <ele>18</ele>
        <time>2018-04-23T16:50:41+02:00</time>
      </trkpt>
      <trkpt lat="48.82049" lon="-3.35933">
        <ele>18</ele>
        <time>2018-04-23T16:50:51+02:00</time>
      </trkpt>
      <trkpt lat="48.8204" lon="-3.35925">
        <ele>20</ele>
        <time>2018-04-23T16:51:01+02:00</time>
      </trkpt>
      <trkpt lat="48.82033" lon="-3.35909">
        <ele>20</ele>
        <time>2018-04-23T16:51:11+02:00</time>
      </trkpt>
      <trkpt lat="48.82025" lon="-3.35897">
        <ele>21</ele>
        <time>2018-04-23T16:51:21+02:00</time>
      </trkpt>
      <trkpt lat="48.82017" lon="-3.35886">
        <ele>22</ele>
        <time>2018-04-23T16:51:31+02:00</time>
      </trkpt>
      <trkpt lat="48.82007" lon="-3.35873">
        <ele>22</ele>
        <time>2018-04-23T16:51:41+02:00</time>
      </trkpt>
      <trkpt lat="48.81998" lon="-3.35866">
        <ele>24</ele>
        <time>2018-04-23T16:51:51+02:00</time>
      </trkpt>
      <trkpt lat="48.81988" lon="-3.3586">
        <ele>24</ele>
        <time>2018-04-23T16:52:01+02:00</time>
      </trkpt>
      <trkpt lat="48.81979" lon="-3.35855">
        <ele>24</ele>
        <time>2018-04-23T16:52:11+02:00</time>
      </trkpt>
      <trkpt lat="48.81972" lon="-3.35847">
        <ele>24</ele>
        <time>2018-04-23T16:52:21+02:00</time>
      </trkpt>
      <trkpt lat="48.81963" lon="-3.35835">
        <ele>24</ele>
        <time>2018-04-23T16:52:31+02:00</time>
      </trkpt>
      <trkpt lat="48.8196" lon="-3.35824">
        <ele>23</ele>
        <time>2018-04-23T16:52:41+02:00</time>
      </trkpt>
      <trkpt lat="48.81957" lon="-3.35807">
        <ele>21</ele>
        <time>2018-04-23T16:52:51+02:00</time>
      </trkpt>
      <trkpt lat="48.81955" lon="-3.35788">
        <ele>19</ele>
        <time>2018-04-23T16:53:01+02:00</time>
      </trkpt>
      <trkpt lat="48.81956" lon="-3.35773">
        <ele>17</ele>
        <time>2018-04-23T16:53:11+02:00</time>
      </trkpt>
      <trkpt lat="48.81949" lon="-3.35754">
        <ele>16</ele>
        <time>2018-04-23T16:53:21+02:00</time>
      </trkpt>
      <trkpt lat="48.81947" lon="-3.35735">
        <ele>14</ele>
        <time>2018-04-23T16:53:31+02:00</time>
      </trkpt>
      <trkpt lat="48.81946" lon="-3.3572">
        <ele>13</ele>
        <time>2018-04-23T16:53:41+02:00</time>
      </trkpt>
      <trkpt lat="48.81944" lon="-3.35708">
        <ele>12</ele>
        <time>2018-04-23T16:53:51+02:00</time>
      </trkpt>
      <trkpt lat="48.81939" lon="-3.35698">
        <ele>11</ele>
        <time>2018-04-23T16:54:01+02:00</time>
      </trkpt>
      <trkpt lat="48.81934" lon="-3.35682">
        <ele>10</ele>
        <time>2018-04-23T16:54:11+02:00</time>
      </trkpt>
      <trkpt lat="48.81932" lon="-3.35665">
        <ele>9</ele>
        <time>2018-04-23T16:54:21+02:00</time>
      </trkpt>
      <trkpt lat="48.81927" lon="-3.35652">
        <ele>9</ele>
        <time>2018-04-23T16:54:31+02:00</time>
      </trkpt>
      <trkpt lat="48.81926" lon="-3.35636">
        <ele>8</ele>
        <time>2018-04-23T16:54:41+02:00</time>
      </trkpt>
      <trkpt lat="48.81929" lon="-3.35618">
        <ele>6</ele>
        <time>2018-04-23T16:54:51+02:00</time>
      </trkpt>
      <trkpt lat="48.81933" lon="-3.35601">
        <ele>5</ele>
        <time>2018-04-23T16:55:01+02:00</time>
      </trkpt>
      <trkpt lat="48.81936" lon="-3.35583">
        <ele>4</ele>
        <time>2018-04-23T16:55:11+02:00</time>
      </trkpt>
      <trkpt lat="48.8194" lon="-3.35578">
        <ele>4</ele>
        <time>2018-04-23T16:55:21+02:00</time>
      </trkpt>
      <trkpt lat="48.81943" lon="-3.35581">
        <ele>3</ele>
        <time>2018-04-23T16:55:31+02:00</time>
      </trkpt>
      <trkpt lat="48.81953" lon="-3.35586">
        <ele>3</ele>
        <time>2018-04-23T16:55:41+02:00</time>
      </trkpt>
      <trkpt lat="48.81964" lon="-3.35578">
        <ele>2</ele>
        <time>2018-04-23T16:55:51+02:00</time>
      </trkpt>
      <trkpt lat="48.81968" lon="-3.35564">
        <ele>2</ele>
        <time>2018-04-23T16:56:01+02:00</time>
      </trkpt>
      <trkpt lat="48.81971" lon="-3.35551">
        <ele>2</ele>
        <time>2018-04-23T16:56:11+02:00</time>
      </trkpt>
      <trkpt lat="48.81974" lon="-3.35535">
        <ele>2</ele>
        <time>2018-04-23T16:56:21+02:00</time>
      </trkpt>
      <trkpt lat="48.81978" lon="-3.35523">
        <ele>1</ele>
        <time>2018-04-23T16:56:31+02:00</time>
      </trkpt>
      <trkpt lat="48.81982" lon="-3.3551">
        <ele>1</ele>
        <time>2018-04-23T16:56:41+02:00</time>
      </trkpt>
      <trkpt lat="48.81986" lon="-3.35495">
        <ele>1</ele>
        <time>2018-04-23T16:56:51+02:00</time>
      </trkpt>
      <trkpt lat="48.81993" lon="-3.35478">
        <ele>1</ele>
        <time>2018-04-23T16:57:01+02:00</time>
      </trkpt>
      <trkpt lat="48.81997" lon="-3.35461">
        <ele>1</ele>
        <time>2018-04-23T16:57:11+02:00</time>
      </trkpt>
      <trkpt lat="48.81999" lon="-3.3545">
        <ele>1</ele>
        <time>2018-04-23T16:57:21+02:00</time>
      </trkpt>
      <trkpt lat="48.82004" lon="-3.35431">
        <ele>1</ele>
        <time>2018-04-23T16:57:31+02:00</time>
      </trkpt>
      <trkpt lat="48.82006" lon="-3.35417">
        <ele>1</ele>
        <time>2018-04-23T16:57:41+02:00</time>
      </trkpt>
      <trkpt lat="48.82005" lon="-3.35408">
        <ele>1</ele>
        <time>2018-04-23T16:57:51+02:00</time>
      </trkpt>
      <trkpt lat="48.8201" lon="-3.35394">
        <ele>1</ele>
        <time>2018-04-23T16:58:01+02:00</time>
      </trkpt>
      <trkpt lat="48.82013" lon="-3.35384">
        <ele>2</ele>
        <time>2018-04-23T16:58:11+02:00</time>
      </trkpt>
      <trkpt lat="48.82015" lon="-3.35366">
        <ele>2</ele>
        <time>2018-04-23T16:58:21+02:00</time>
      </trkpt>
      <trkpt lat="48.82018" lon="-3.35351">
        <ele>2</ele>
        <time>2018-04-23T16:58:31+02:00</time>
      </trkpt>
      <trkpt lat="48.82016" lon="-3.35345">
        <ele>2</ele>
        <time>2018-04-23T16:58:41+02:00</time>
      </trkpt>
      <trkpt lat="48.82018" lon="-3.35332">
        <ele>2</ele>
        <time>2018-04-23T16:58:51+02:00</time>
      </trkpt>
      <trkpt lat="48.82021" lon="-3.35318">
        <ele>3</ele>
        <time>2018-04-23T16:59:01+02:00</time>
      </trkpt>
      <trkpt lat="48.82025" lon="-3.35304">
        <ele>3</ele>
        <time>2018-04-23T16:59:11+02:00</time>
      </trkpt>
      <trkpt lat="48.82031" lon="-3.3529">
        <ele>3</ele>
        <time>2018-04-23T16:59:21+02:00</time>
      </trkpt>
      <trkpt lat="48.82037" lon="-3.35276">
        <ele>2</ele>
        <time>2018-04-23T16:59:31+02:00</time>
      </trkpt>
      <trkpt lat="48.82042" lon="-3.35262">
        <ele>2</ele>
        <time>2018-04-23T16:59:41+02:00</time>
      </trkpt>
      <trkpt lat="48.8205" lon="-3.35249">
        <ele>2</ele>
        <time>2018-04-23T16:59:51+02:00</time>
      </trkpt>
      <trkpt lat="48.82056" lon="-3.35234">
        <ele>2</ele>
        <time>2018-04-23T17:00:01+02:00</time>
      </trkpt>
      <trkpt lat="48.82062" lon="-3.35221">
        <ele>2</ele>
        <time>2018-04-23T17:00:11+02:00</time>
      </trkpt>
      <trkpt lat="48.82063" lon="-3.35205">
        <ele>2</ele>
        <time>2018-04-23T17:00:21+02:00</time>
      </trkpt>
      <trkpt lat="48.82067" lon="-3.35179">
        <ele>3</ele>
        <time>2018-04-23T17:00:31+02:00</time>
      </trkpt>
      <trkpt lat="48.82072" lon="-3.35162">
        <ele>3</ele>
        <time>2018-04-23T17:00:41+02:00</time>
      </trkpt>
      <trkpt lat="48.82077" lon="-3.35145">
        <ele>4</ele>
        <time>2018-04-23T17:00:44+02:00</time>
      </trkpt>
    </trkseg>
  </trk>
</gpx>